QFA93 YMML-KLAX
Flight info
| Callsign | QFA93 |
|---|---|
| Flight time | 13h 45m |
| Altitude | 33000 |
| Route | DOSEL Y59 TESAT B450 NOBAR A579 UPSAD/N0479F350 A579 NN B581 BAXIL/N0484F370 B581 WAYSE/N0471F390 B581 FICKY GOATZ2 |
| Aircraft | A388/J-SADE2E3FGHIJ3J4J5M1RWXY/LB1D1 |
Departure
| Time | 2026-04-22 07:17 |
|---|---|
| Airport | Melbourne Airport (YMML) |
Arrival
| Time | 2026-04-22 21:02 |
|---|---|
| Airport | Los Angeles International Airport (KLAX) |
| Time | Latitude | Longitude | Altitude | Speed | Heading |
|---|---|---|---|---|---|
| 2026-04-22 06:54 | -37.66972 | 144.84343 | 393 ft | 0 kts | 44° |
| 2026-04-22 07:04 | -37.66976 | 144.84338 | 393 ft | 2 kts | 43° |
| 2026-04-22 07:04 | -37.66988 | 144.84325 | 392 ft | 2 kts | 39° |
| 2026-04-22 07:04 | -37.67002 | 144.84313 | 392 ft | 2 kts | 33° |
| 2026-04-22 07:04 | -37.67017 | 144.84305 | 391 ft | 2 kts | 16° |
| 2026-04-22 07:05 | -37.67034 | 144.84307 | 391 ft | 2 kts | 345° |
| 2026-04-22 07:05 | -37.67048 | 144.84317 | 391 ft | 2 kts | 321° |
| 2026-04-22 07:05 | -37.67054 | 144.84336 | 391 ft | 2 kts | 277° |
| 2026-04-22 07:05 | -37.67053 | 144.84356 | 391 ft | 2 kts | 265° |
| 2026-04-22 07:06 | -37.67052 | 144.84362 | 391 ft | 0 kts | 265° |
| 2026-04-22 07:10 | -37.67053 | 144.84357 | 391 ft | 2 kts | 265° |
| 2026-04-22 07:10 | -37.67057 | 144.84315 | 391 ft | 7 kts | 261° |
| 2026-04-22 07:11 | -37.67067 | 144.84240 | 389 ft | 11 kts | 260° |
| 2026-04-22 07:11 | -37.67081 | 144.84134 | 388 ft | 13 kts | 259° |
| 2026-04-22 07:11 | -37.67136 | 144.84057 | 386 ft | 13 kts | 190° |
| 2026-04-22 07:11 | -37.67242 | 144.84071 | 383 ft | 18 kts | 171° |
| 2026-04-22 07:12 | -37.67374 | 144.84097 | 380 ft | 18 kts | 171° |
| 2026-04-22 07:12 | -37.67472 | 144.84138 | 380 ft | 14 kts | 132° |
| 2026-04-22 07:12 | -37.67507 | 144.84245 | 380 ft | 13 kts | 104° |
| 2026-04-22 07:12 | -37.67553 | 144.84324 | 379 ft | 11 kts | 151° |
| 2026-04-22 07:13 | -37.67641 | 144.84352 | 377 ft | 15 kts | 171° |
| 2026-04-22 07:13 | -37.67763 | 144.84376 | 376 ft | 20 kts | 172° |
| 2026-04-22 07:13 | -37.67919 | 144.84404 | 367 ft | 25 kts | 172° |
| 2026-04-22 07:13 | -37.68099 | 144.84437 | 363 ft | 27 kts | 172° |
| 2026-04-22 07:14 | -37.68252 | 144.84465 | 361 ft | 21 kts | 172° |
| 2026-04-22 07:14 | -37.68383 | 144.84443 | 360 ft | 21 kts | 212° |
| 2026-04-22 07:14 | -37.68483 | 144.84355 | 357 ft | 14 kts | 215° |
| 2026-04-22 07:14 | -37.68545 | 144.84271 | 352 ft | 13 kts | 250° |
| 2026-04-22 07:15 | -37.68559 | 144.84178 | 353 ft | 0 kts | 262° |
| 2026-04-22 07:15 | -37.68559 | 144.84177 | 353 ft | 1 kts | 262° |
| 2026-04-22 07:15 | -37.68563 | 144.84140 | 357 ft | 7 kts | 262° |
| 2026-04-22 07:15 | -37.68559 | 144.84106 | 355 ft | 2 kts | 300° |
| 2026-04-22 07:16 | -37.68555 | 144.84098 | 354 ft | 2 kts | 310° |
| 2026-04-22 07:16 | -37.68484 | 144.84072 | 355 ft | 31 kts | 355° |
| 2026-04-22 07:16 | -37.68025 | 144.83999 | 365 ft | 101 kts | 352° |
| 2026-04-22 07:16 | -37.67153 | 144.83832 | 388 ft | 147 kts | 352° |
| 2026-04-22 07:17 | -37.66111 | 144.83619 | 796 ft | 149 kts | 353° |
| 2026-04-22 07:17 | -37.65060 | 144.83395 | 1203 ft | 158 kts | 353° |
| 2026-04-22 07:17 | -37.63957 | 144.83222 | 1707 ft | 159 kts | 352° |
| 2026-04-22 07:17 | -37.62839 | 144.83059 | 2099 ft | 164 kts | 351° |
| 2026-04-22 07:18 | -37.61669 | 144.82840 | 2342 ft | 176 kts | 348° |
| 2026-04-22 07:18 | -37.60413 | 144.82569 | 2447 ft | 193 kts | 350° |
| 2026-04-22 07:18 | -37.59020 | 144.82554 | 2534 ft | 207 kts | 7° |
| 2026-04-22 07:18 | -37.57614 | 144.83130 | 2617 ft | 220 kts | 25° |
| 2026-04-22 07:19 | -37.56178 | 144.84055 | 2786 ft | 241 kts | 24° |
| 2026-04-22 07:19 | -37.54605 | 144.85028 | 2986 ft | 263 kts | 24° |
| 2026-04-22 07:19 | -37.52932 | 144.86046 | 3574 ft | 268 kts | 25° |
| 2026-04-22 07:19 | -37.51233 | 144.87078 | 4113 ft | 274 kts | 25° |
| 2026-04-22 07:20 | -37.49535 | 144.88106 | 4836 ft | 274 kts | 26° |
| 2026-04-22 07:20 | -37.47805 | 144.89155 | 5477 ft | 277 kts | 26° |
| 2026-04-22 07:20 | -37.46067 | 144.90210 | 6156 ft | 278 kts | 26° |
| 2026-04-22 07:20 | -37.44349 | 144.91342 | 6816 ft | 279 kts | 35° |
| 2026-04-22 07:21 | -37.42906 | 144.92969 | 7443 ft | 280 kts | 52° |
| 2026-04-22 07:21 | -37.41792 | 144.94969 | 8098 ft | 280 kts | 57° |
| 2026-04-22 07:21 | -37.40675 | 144.96996 | 8728 ft | 282 kts | 56° |
| 2026-04-22 07:21 | -37.39537 | 144.99014 | 9390 ft | 283 kts | 56° |
| 2026-04-22 07:22 | -37.38386 | 145.01041 | 10038 ft | 286 kts | 55° |
| 2026-04-22 07:22 | -37.37212 | 145.03110 | 10342 ft | 300 kts | 55° |
| 2026-04-22 07:22 | -37.35969 | 145.05304 | 10495 ft | 316 kts | 55° |
| 2026-04-22 07:22 | -37.34659 | 145.07618 | 10640 ft | 332 kts | 55° |
| 2026-04-22 07:23 | -37.33303 | 145.10011 | 11056 ft | 338 kts | 54° |
| 2026-04-22 07:23 | -37.31932 | 145.12429 | 11554 ft | 341 kts | 54° |
| 2026-04-22 07:23 | -37.30567 | 145.14836 | 12065 ft | 344 kts | 54° |
| 2026-04-22 07:23 | -37.29171 | 145.17296 | 12569 ft | 347 kts | 54° |
| 2026-04-22 07:24 | -37.27763 | 145.19775 | 13078 ft | 350 kts | 54° |
| 2026-04-22 07:24 | -37.26341 | 145.22275 | 13588 ft | 353 kts | 53° |
| 2026-04-22 07:24 | -37.24906 | 145.24799 | 14101 ft | 356 kts | 53° |
| 2026-04-22 07:24 | -37.23461 | 145.27338 | 14534 ft | 359 kts | 53° |
| 2026-04-22 07:25 | -37.22004 | 145.29898 | 14984 ft | 362 kts | 53° |
| 2026-04-22 07:25 | -37.20536 | 145.32473 | 15430 ft | 365 kts | 53° |
| 2026-04-22 07:25 | -37.19046 | 145.35084 | 15855 ft | 368 kts | 53° |
| 2026-04-22 07:25 | -37.17551 | 145.37704 | 16307 ft | 371 kts | 53° |
| 2026-04-22 07:26 | -37.16041 | 145.40346 | 16727 ft | 374 kts | 54° |
| 2026-04-22 07:26 | -37.14518 | 145.43006 | 17156 ft | 376 kts | 53° |
| 2026-04-22 07:26 | -37.13000 | 145.45652 | 17567 ft | 379 kts | 54° |
| 2026-04-22 07:26 | -37.11457 | 145.48342 | 18001 ft | 382 kts | 54° |
| 2026-04-22 07:27 | -37.09899 | 145.51058 | 18426 ft | 385 kts | 54° |
| 2026-04-22 07:27 | -37.08329 | 145.53792 | 18822 ft | 387 kts | 54° |
| 2026-04-22 07:27 | -37.06754 | 145.56533 | 19210 ft | 388 kts | 53° |
| 2026-04-22 07:27 | -37.05169 | 145.59288 | 19594 ft | 390 kts | 53° |
| 2026-04-22 07:28 | -37.02002 | 145.64786 | 20326 ft | 393 kts | 53° |
| 2026-04-22 07:28 | -37.00400 | 145.67565 | 20678 ft | 395 kts | 53° |
| 2026-04-22 07:28 | -36.98787 | 145.70359 | 21047 ft | 397 kts | 53° |
| 2026-04-22 07:29 | -36.97166 | 145.73166 | 21401 ft | 399 kts | 53° |
| 2026-04-22 07:29 | -36.95538 | 145.75981 | 21756 ft | 400 kts | 53° |
| 2026-04-22 07:29 | -36.94453 | 145.77857 | 22008 ft | 401 kts | 53° |
| 2026-04-22 07:29 | -36.92276 | 145.81615 | 22457 ft | 404 kts | 53° |
| 2026-04-22 07:30 | -36.90626 | 145.84463 | 22815 ft | 405 kts | 53° |
| 2026-04-22 07:30 | -36.89522 | 145.86366 | 23036 ft | 407 kts | 53° |
| 2026-04-22 07:30 | -36.87852 | 145.89244 | 23380 ft | 409 kts | 53° |
| 2026-04-22 07:30 | -36.86179 | 145.92123 | 23727 ft | 411 kts | 53° |
| 2026-04-22 07:31 | -36.84493 | 145.95022 | 24022 ft | 413 kts | 53° |
| 2026-04-22 07:31 | -36.82792 | 145.97945 | 24278 ft | 415 kts | 53° |
| 2026-04-22 07:31 | -36.81114 | 146.00826 | 24540 ft | 417 kts | 53° |
| 2026-04-22 07:31 | -36.79394 | 146.03778 | 24810 ft | 420 kts | 53° |
| 2026-04-22 07:32 | -36.77673 | 146.06726 | 25083 ft | 422 kts | 53° |
| 2026-04-22 07:32 | -36.75939 | 146.09695 | 25332 ft | 424 kts | 53° |
| 2026-04-22 07:32 | -36.74195 | 146.12678 | 25617 ft | 426 kts | 53° |
| 2026-04-22 07:32 | -36.72439 | 146.15681 | 25888 ft | 429 kts | 53° |
| 2026-04-22 07:33 | -36.70678 | 146.18688 | 26171 ft | 431 kts | 53° |
| 2026-04-22 07:33 | -36.68924 | 146.21681 | 26447 ft | 434 kts | 53° |
| 2026-04-22 07:33 | -36.67133 | 146.24735 | 26748 ft | 437 kts | 53° |
| 2026-04-22 07:33 | -36.65337 | 146.27794 | 27036 ft | 439 kts | 53° |
| 2026-04-22 07:34 | -36.63523 | 146.30882 | 27343 ft | 442 kts | 53° |
| 2026-04-22 07:34 | -36.61694 | 146.33990 | 27654 ft | 445 kts | 53° |
| 2026-04-22 07:34 | -36.59864 | 146.37100 | 27961 ft | 448 kts | 53° |
| 2026-04-22 07:34 | -36.58010 | 146.40246 | 28265 ft | 450 kts | 53° |
| 2026-04-22 07:35 | -36.56152 | 146.43396 | 28588 ft | 453 kts | 53° |
| 2026-04-22 07:35 | -36.54303 | 146.46528 | 28886 ft | 456 kts | 53° |
| 2026-04-22 07:35 | -36.52420 | 146.49714 | 29183 ft | 459 kts | 53° |
| 2026-04-22 07:35 | -36.50497 | 146.52966 | 29511 ft | 462 kts | 53° |
| 2026-04-22 07:36 | -36.48611 | 146.56152 | 29816 ft | 465 kts | 53° |
| 2026-04-22 07:36 | -36.46685 | 146.59402 | 30128 ft | 468 kts | 53° |
| 2026-04-22 07:36 | -36.44749 | 146.62666 | 30414 ft | 471 kts | 53° |
| 2026-04-22 07:36 | -36.42801 | 146.65947 | 30716 ft | 472 kts | 53° |
| 2026-04-22 07:37 | -36.40845 | 146.69239 | 31061 ft | 474 kts | 53° |
| 2026-04-22 07:37 | -36.38883 | 146.72537 | 31357 ft | 476 kts | 53° |
| 2026-04-22 07:37 | -36.36909 | 146.75852 | 31670 ft | 477 kts | 53° |
| 2026-04-22 07:37 | -36.34936 | 146.79163 | 31978 ft | 479 kts | 53° |
| 2026-04-22 07:38 | -36.32947 | 146.82497 | 32260 ft | 481 kts | 53° |
| 2026-04-22 07:38 | -36.30950 | 146.85841 | 32551 ft | 483 kts | 53° |
| 2026-04-22 07:38 | -36.28950 | 146.89188 | 32826 ft | 485 kts | 53° |
| 2026-04-22 07:38 | -36.26956 | 146.92520 | 33095 ft | 487 kts | 53° |
| 2026-04-22 07:39 | -36.24934 | 146.95896 | 33402 ft | 488 kts | 53° |
| 2026-04-22 07:39 | -36.22903 | 146.99284 | 33660 ft | 491 kts | 53° |
| 2026-04-22 07:39 | -36.20862 | 147.02686 | 33936 ft | 493 kts | 53° |
| 2026-04-22 07:39 | -36.18813 | 147.06098 | 34212 ft | 495 kts | 53° |
| 2026-04-22 07:40 | -36.16754 | 147.09525 | 34455 ft | 497 kts | 53° |
| 2026-04-22 07:40 | -36.14679 | 147.12971 | 34690 ft | 499 kts | 53° |
| 2026-04-22 07:40 | -36.12598 | 147.16422 | 34917 ft | 501 kts | 52° |
| 2026-04-22 07:40 | -36.10510 | 147.19882 | 35174 ft | 502 kts | 53° |
| 2026-04-22 07:41 | -36.08420 | 147.23345 | 35485 ft | 502 kts | 53° |
| 2026-04-22 07:41 | -36.06351 | 147.26768 | 35827 ft | 502 kts | 52° |
| 2026-04-22 07:41 | -36.04258 | 147.30226 | 36141 ft | 501 kts | 52° |
| 2026-04-22 07:41 | -36.02173 | 147.33669 | 36460 ft | 501 kts | 52° |
| 2026-04-22 07:42 | -36.00083 | 147.37116 | 36773 ft | 500 kts | 52° |
| 2026-04-22 07:42 | -35.97991 | 147.40564 | 37065 ft | 500 kts | 52° |
| 2026-04-22 07:42 | -35.95907 | 147.43994 | 37374 ft | 499 kts | 52° |
| 2026-04-22 07:42 | -35.93824 | 147.47421 | 37666 ft | 499 kts | 52° |
| 2026-04-22 07:43 | -35.91740 | 147.50844 | 37954 ft | 499 kts | 52° |
| 2026-04-22 07:43 | -35.89652 | 147.54271 | 38234 ft | 498 kts | 52° |
| 2026-04-22 07:43 | -35.87569 | 147.57687 | 38538 ft | 498 kts | 52° |
| 2026-04-22 07:43 | -35.85489 | 147.61094 | 38821 ft | 497 kts | 52° |
| 2026-04-22 07:44 | -35.83433 | 147.64459 | 39065 ft | 497 kts | 52° |
| 2026-04-22 07:44 | -35.81352 | 147.67862 | 39259 ft | 497 kts | 52° |
| 2026-04-22 07:44 | -35.77150 | 147.74720 | 39314 ft | 505 kts | 52° |
| 2026-04-22 07:45 | -35.72942 | 147.81576 | 39315 ft | 501 kts | 52° |
| 2026-04-22 07:45 | -35.68729 | 147.88427 | 39315 ft | 503 kts | 52° |
| 2026-04-22 07:46 | -35.64528 | 147.95243 | 39315 ft | 503 kts | 52° |
| 2026-04-22 07:46 | -35.60293 | 148.02102 | 39318 ft | 503 kts | 52° |
| 2026-04-22 07:47 | -35.56065 | 148.08935 | 39313 ft | 502 kts | 52° |
| 2026-04-22 07:47 | -35.51827 | 148.15774 | 39312 ft | 502 kts | 52° |
| 2026-04-22 07:48 | -35.47583 | 148.22606 | 39307 ft | 503 kts | 52° |
| 2026-04-22 07:48 | -35.43336 | 148.29431 | 39307 ft | 503 kts | 52° |
| 2026-04-22 07:49 | -35.39082 | 148.36251 | 39313 ft | 504 kts | 52° |
| 2026-04-22 07:49 | -35.34841 | 148.43039 | 39311 ft | 504 kts | 52° |
| 2026-04-22 07:50 | -35.30564 | 148.49871 | 39317 ft | 505 kts | 52° |
| 2026-04-22 07:50 | -35.26277 | 148.56705 | 39322 ft | 506 kts | 52° |
| 2026-04-22 07:51 | -35.22004 | 148.63504 | 39325 ft | 507 kts | 52° |
| 2026-04-22 07:51 | -35.17686 | 148.70361 | 39330 ft | 508 kts | 52° |
| 2026-04-22 07:52 | -35.13364 | 148.77212 | 39328 ft | 508 kts | 52° |
| 2026-04-22 07:52 | -35.09036 | 148.84057 | 39327 ft | 509 kts | 52° |
| 2026-04-22 07:53 | -35.04703 | 148.90898 | 39329 ft | 510 kts | 52° |
| 2026-04-22 07:53 | -35.00384 | 148.97704 | 39330 ft | 510 kts | 52° |
| 2026-04-22 07:54 | -34.96037 | 149.04539 | 39325 ft | 510 kts | 52° |
| 2026-04-22 07:54 | -34.91678 | 149.11381 | 39333 ft | 511 kts | 52° |
| 2026-04-22 07:55 | -34.87314 | 149.18218 | 39335 ft | 511 kts | 52° |
| 2026-04-22 07:55 | -34.82966 | 149.25015 | 39334 ft | 511 kts | 52° |
| 2026-04-22 07:56 | -34.78591 | 149.31843 | 39334 ft | 512 kts | 52° |
| 2026-04-22 07:56 | -34.74277 | 149.38768 | 39340 ft | 512 kts | 57° |
| 2026-04-22 07:57 | -34.70796 | 149.46317 | 39339 ft | 512 kts | 63° |
| 2026-04-22 07:57 | -34.67486 | 149.53947 | 39343 ft | 513 kts | 63° |
| 2026-04-22 07:58 | -34.64132 | 149.61619 | 39351 ft | 514 kts | 63° |
| 2026-04-22 07:58 | -34.60789 | 149.69245 | 39357 ft | 514 kts | 63° |
| 2026-04-22 07:59 | -34.57423 | 149.76911 | 39360 ft | 515 kts | 63° |
| 2026-04-22 07:59 | -34.54041 | 149.84596 | 39359 ft | 516 kts | 63° |
| 2026-04-22 08:00 | -34.50679 | 149.92218 | 39358 ft | 516 kts | 63° |
| 2026-04-22 08:00 | -34.47285 | 149.99894 | 39363 ft | 517 kts | 63° |
| 2026-04-22 08:01 | -34.43876 | 150.07587 | 39366 ft | 517 kts | 63° |
| 2026-04-22 08:01 | -34.40483 | 150.15228 | 39368 ft | 517 kts | 63° |
| 2026-04-22 08:02 | -34.37067 | 150.22902 | 39361 ft | 518 kts | 63° |
| 2026-04-22 08:02 | -34.33638 | 150.30588 | 39356 ft | 519 kts | 63° |
| 2026-04-22 08:03 | -34.30207 | 150.38262 | 39362 ft | 519 kts | 63° |
| 2026-04-22 08:03 | -34.26765 | 150.45953 | 39363 ft | 520 kts | 63° |
| 2026-04-22 08:04 | -34.23343 | 150.53670 | 39365 ft | 520 kts | 63° |
| 2026-04-22 08:04 | -34.19944 | 150.61323 | 39359 ft | 520 kts | 63° |
| 2026-04-22 08:05 | -34.16505 | 150.69036 | 39357 ft | 520 kts | 63° |
| 2026-04-22 08:05 | -34.13069 | 150.76726 | 39348 ft | 520 kts | 63° |
| 2026-04-22 08:06 | -34.09622 | 150.84423 | 39348 ft | 521 kts | 63° |
| 2026-04-22 08:06 | -34.06170 | 150.92114 | 39349 ft | 521 kts | 63° |
| 2026-04-22 08:07 | -34.02723 | 150.99777 | 39342 ft | 522 kts | 63° |
| 2026-04-22 08:07 | -33.99263 | 151.07451 | 39341 ft | 523 kts | 63° |
| 2026-04-22 08:08 | -33.95771 | 151.15182 | 39339 ft | 523 kts | 64° |
| 2026-04-22 08:08 | -33.92959 | 151.23223 | 39343 ft | 520 kts | 75° |
| 2026-04-22 08:09 | -33.90684 | 151.31441 | 39347 ft | 520 kts | 74° |
| 2026-04-22 08:09 | -33.88358 | 151.39708 | 39345 ft | 521 kts | 74° |
| 2026-04-22 08:10 | -33.86026 | 151.47963 | 39340 ft | 521 kts | 74° |
| 2026-04-22 08:10 | -33.83687 | 151.56224 | 39339 ft | 522 kts | 74° |
| 2026-04-22 08:11 | -33.81354 | 151.64442 | 39332 ft | 522 kts | 74° |
| 2026-04-22 08:11 | -33.78946 | 151.72690 | 39330 ft | 524 kts | 70° |
| 2026-04-22 08:12 | -33.75666 | 151.80547 | 39324 ft | 526 kts | 63° |
| 2026-04-22 08:12 | -33.72141 | 151.88260 | 39323 ft | 527 kts | 63° |
| 2026-04-22 08:13 | -33.68635 | 151.95956 | 39318 ft | 527 kts | 63° |
| 2026-04-22 08:13 | -33.65099 | 152.03696 | 39315 ft | 528 kts | 63° |
| 2026-04-22 08:14 | -33.61547 | 152.11439 | 39318 ft | 529 kts | 63° |
| 2026-04-22 08:14 | -33.57991 | 152.19187 | 39316 ft | 530 kts | 63° |
| 2026-04-22 08:15 | -33.54427 | 152.26937 | 39309 ft | 531 kts | 63° |
| 2026-04-22 08:15 | -33.51461 | 152.33370 | 39312 ft | 531 kts | 63° |
| 2026-04-22 08:16 | -33.47877 | 152.41126 | 39310 ft | 532 kts | 63° |
| 2026-04-22 08:16 | -33.44281 | 152.48894 | 39310 ft | 533 kts | 63° |
| 2026-04-22 08:17 | -33.40675 | 152.56663 | 39306 ft | 534 kts | 63° |
| 2026-04-22 08:17 | -33.37085 | 152.64384 | 39312 ft | 534 kts | 63° |
| 2026-04-22 08:18 | -33.33463 | 152.72156 | 39308 ft | 535 kts | 63° |
| 2026-04-22 08:18 | -33.29831 | 152.79931 | 39304 ft | 535 kts | 63° |
| 2026-04-22 08:19 | -33.26189 | 152.87712 | 39305 ft | 536 kts | 63° |
| 2026-04-22 08:19 | -33.22568 | 152.95432 | 39303 ft | 536 kts | 63° |
| 2026-04-22 08:20 | -33.18915 | 153.03202 | 39301 ft | 537 kts | 63° |
| 2026-04-22 08:20 | -33.15250 | 153.10982 | 39296 ft | 537 kts | 63° |
| 2026-04-22 08:21 | -33.11583 | 153.18749 | 39293 ft | 537 kts | 63° |
| 2026-04-22 08:21 | -33.07907 | 153.26517 | 39288 ft | 538 kts | 63° |
| 2026-04-22 08:22 | -33.04228 | 153.34277 | 39289 ft | 538 kts | 63° |
| 2026-04-22 08:22 | -33.00537 | 153.42043 | 39287 ft | 538 kts | 63° |
| 2026-04-22 08:23 | -32.96863 | 153.49760 | 39285 ft | 538 kts | 63° |
| 2026-04-22 08:23 | -32.93162 | 153.57514 | 39279 ft | 538 kts | 63° |
| 2026-04-22 08:24 | -32.89454 | 153.65268 | 39277 ft | 538 kts | 63° |
| 2026-04-22 08:24 | -32.85742 | 153.73014 | 39273 ft | 538 kts | 63° |
| 2026-04-22 08:25 | -32.82029 | 153.80745 | 39271 ft | 538 kts | 62° |
| 2026-04-22 08:25 | -32.78311 | 153.88471 | 39260 ft | 538 kts | 62° |
| 2026-04-22 08:26 | -32.74612 | 153.96141 | 39261 ft | 539 kts | 62° |
| 2026-04-22 08:26 | -32.70877 | 154.03867 | 39260 ft | 539 kts | 62° |
| 2026-04-22 08:27 | -32.67138 | 154.11588 | 39263 ft | 539 kts | 62° |
| 2026-04-22 08:27 | -32.63399 | 154.19291 | 39254 ft | 539 kts | 62° |
| 2026-04-22 08:28 | -32.59652 | 154.26995 | 39259 ft | 539 kts | 62° |
| 2026-04-22 08:28 | -32.55897 | 154.34701 | 39261 ft | 539 kts | 62° |
| 2026-04-22 08:29 | -32.52143 | 154.42387 | 39258 ft | 539 kts | 62° |
| 2026-04-22 08:29 | -32.48378 | 154.50081 | 39260 ft | 539 kts | 62° |
| 2026-04-22 08:30 | -32.44608 | 154.57768 | 39244 ft | 540 kts | 62° |
| 2026-04-22 08:30 | -32.40861 | 154.65398 | 39240 ft | 540 kts | 62° |
| 2026-04-22 08:31 | -32.37082 | 154.73071 | 39238 ft | 540 kts | 62° |
| 2026-04-22 08:32 | -32.31393 | 154.84577 | 39240 ft | 540 kts | 62° |
| 2026-04-22 08:32 | -32.27603 | 154.92236 | 39242 ft | 540 kts | 62° |
| 2026-04-22 08:33 | -32.23810 | 154.99883 | 39236 ft | 540 kts | 62° |
| 2026-04-22 08:33 | -32.20012 | 155.07523 | 39234 ft | 539 kts | 61° |
| 2026-04-22 08:34 | -32.16206 | 155.15162 | 39229 ft | 539 kts | 61° |
| 2026-04-22 08:34 | -32.12425 | 155.22735 | 39225 ft | 539 kts | 61° |
| 2026-04-22 08:35 | -32.08611 | 155.30361 | 39224 ft | 539 kts | 61° |
| 2026-04-22 08:35 | -32.04799 | 155.37966 | 39220 ft | 539 kts | 61° |
| 2026-04-22 08:36 | -32.00977 | 155.45576 | 39214 ft | 539 kts | 61° |
| 2026-04-22 08:36 | -31.97150 | 155.53179 | 39211 ft | 539 kts | 61° |
| 2026-04-22 08:37 | -31.93317 | 155.60780 | 39207 ft | 539 kts | 61° |
| 2026-04-22 08:37 | -31.89505 | 155.68325 | 39210 ft | 540 kts | 60° |
| 2026-04-22 08:38 | -31.85658 | 155.75923 | 39215 ft | 540 kts | 60° |
| 2026-04-22 08:38 | -31.81806 | 155.83517 | 39212 ft | 541 kts | 60° |
| 2026-04-22 08:39 | -31.77942 | 155.91117 | 39217 ft | 542 kts | 60° |
| 2026-04-22 08:39 | -31.74067 | 155.98726 | 39214 ft | 542 kts | 60° |
| 2026-04-22 08:40 | -31.70187 | 156.06327 | 39218 ft | 542 kts | 60° |
| 2026-04-22 08:40 | -31.66329 | 156.13871 | 39213 ft | 542 kts | 60° |
| 2026-04-22 08:41 | -31.62442 | 156.21456 | 39205 ft | 541 kts | 60° |
| 2026-04-22 08:41 | -31.58556 | 156.29026 | 39203 ft | 541 kts | 60° |
| 2026-04-22 08:42 | -31.54667 | 156.36585 | 39193 ft | 541 kts | 60° |
| 2026-04-22 08:42 | -31.50774 | 156.44137 | 39194 ft | 541 kts | 60° |
| 2026-04-22 08:43 | -31.46881 | 156.51674 | 39183 ft | 540 kts | 59° |
| 2026-04-22 08:43 | -31.43008 | 156.59158 | 39187 ft | 540 kts | 59° |
| 2026-04-22 08:44 | -31.39105 | 156.66687 | 39185 ft | 540 kts | 59° |
| 2026-04-22 08:44 | -31.35198 | 156.74207 | 39180 ft | 541 kts | 59° |
| 2026-04-22 08:45 | -31.31287 | 156.81720 | 39181 ft | 541 kts | 59° |
| 2026-04-22 08:45 | -31.27368 | 156.89234 | 39178 ft | 541 kts | 59° |
| 2026-04-22 08:46 | -31.23443 | 156.96745 | 39173 ft | 542 kts | 59° |
| 2026-04-22 08:46 | -31.19513 | 157.04251 | 39178 ft | 542 kts | 59° |
| 2026-04-22 08:47 | -31.15598 | 157.11714 | 39182 ft | 542 kts | 59° |
| 2026-04-22 08:47 | -31.11652 | 157.19222 | 39178 ft | 542 kts | 59° |
| 2026-04-22 08:48 | -31.07688 | 157.26748 | 39179 ft | 543 kts | 59° |
| 2026-04-22 08:48 | -31.03731 | 157.34251 | 39178 ft | 543 kts | 58° |
| 2026-04-22 08:49 | -30.99799 | 157.41694 | 39174 ft | 543 kts | 58° |
| 2026-04-22 08:49 | -30.95823 | 157.49166 | 39170 ft | 543 kts | 58° |
| 2026-04-22 08:50 | -30.91849 | 157.56645 | 39169 ft | 542 kts | 58° |
| 2026-04-22 08:50 | -30.87876 | 157.64122 | 39167 ft | 542 kts | 58° |
| 2026-04-22 08:51 | -30.83898 | 157.71598 | 39164 ft | 542 kts | 58° |
| 2026-04-22 08:51 | -30.79922 | 157.79051 | 39159 ft | 542 kts | 58° |
| 2026-04-22 08:52 | -30.75936 | 157.86502 | 39155 ft | 542 kts | 58° |
| 2026-04-22 08:52 | -30.71973 | 157.93896 | 39153 ft | 542 kts | 58° |
| 2026-04-22 08:53 | -30.67977 | 158.01337 | 39151 ft | 542 kts | 58° |
| 2026-04-22 08:53 | -30.63975 | 158.08774 | 39153 ft | 542 kts | 57° |
| 2026-04-22 08:54 | -30.59975 | 158.16196 | 39153 ft | 543 kts | 57° |
| 2026-04-22 08:54 | -30.55965 | 158.23621 | 39154 ft | 543 kts | 57° |
| 2026-04-22 08:55 | -30.51947 | 158.31046 | 39157 ft | 543 kts | 57° |
| 2026-04-22 08:55 | -30.47950 | 158.38421 | 39152 ft | 543 kts | 57° |
| 2026-04-22 08:56 | -30.43922 | 158.45838 | 39154 ft | 543 kts | 57° |
| 2026-04-22 08:56 | -30.39883 | 158.53260 | 39155 ft | 544 kts | 57° |
| 2026-04-22 08:57 | -30.35848 | 158.60662 | 39151 ft | 544 kts | 57° |
| 2026-04-22 08:57 | -30.31800 | 158.68075 | 39154 ft | 544 kts | 57° |
| 2026-04-22 08:58 | -30.27754 | 158.75469 | 39152 ft | 544 kts | 56° |
| 2026-04-22 08:58 | -30.23699 | 158.82866 | 39151 ft | 543 kts | 56° |
| 2026-04-22 08:59 | -30.19649 | 158.90242 | 39146 ft | 543 kts | 56° |
| 2026-04-22 08:59 | -30.15613 | 158.97576 | 39145 ft | 544 kts | 56° |
| 2026-04-22 09:00 | -30.11542 | 159.04962 | 39146 ft | 544 kts | 56° |
| 2026-04-22 09:00 | -30.07475 | 159.12328 | 39144 ft | 544 kts | 56° |
| 2026-04-22 09:01 | -30.03394 | 159.19704 | 39142 ft | 544 kts | 56° |
| 2026-04-22 09:01 | -29.99338 | 159.27022 | 39140 ft | 544 kts | 56° |
| 2026-04-22 09:02 | -29.95251 | 159.34383 | 39140 ft | 544 kts | 56° |
| 2026-04-22 09:02 | -29.91856 | 159.40488 | 39139 ft | 544 kts | 55° |
| 2026-04-22 09:03 | -29.87103 | 159.49018 | 39135 ft | 543 kts | 55° |
| 2026-04-22 09:03 | -29.83015 | 159.56341 | 39135 ft | 543 kts | 55° |
| 2026-04-22 09:04 | -29.79585 | 159.62475 | 39135 ft | 544 kts | 55° |
| 2026-04-22 09:04 | -29.75508 | 159.69753 | 39134 ft | 544 kts | 55° |
| 2026-04-22 09:05 | -29.71400 | 159.77073 | 39138 ft | 544 kts | 55° |
| 2026-04-22 09:05 | -29.67281 | 159.84401 | 39135 ft | 544 kts | 54° |
| 2026-04-22 09:06 | -29.63165 | 159.91711 | 39134 ft | 545 kts | 54° |
| 2026-04-22 09:06 | -29.59038 | 159.99025 | 39133 ft | 545 kts | 54° |
| 2026-04-22 09:07 | -29.54930 | 160.06293 | 39129 ft | 545 kts | 54° |
| 2026-04-22 09:07 | -29.50787 | 160.13611 | 39132 ft | 546 kts | 54° |
| 2026-04-22 09:08 | -29.46642 | 160.20919 | 39134 ft | 546 kts | 54° |
| 2026-04-22 09:08 | -29.42513 | 160.28186 | 39132 ft | 546 kts | 54° |
| 2026-04-22 09:09 | -29.38355 | 160.35492 | 39133 ft | 546 kts | 54° |
| 2026-04-22 09:09 | -29.34193 | 160.42791 | 39129 ft | 546 kts | 54° |
| 2026-04-22 09:10 | -29.30057 | 160.50032 | 39139 ft | 546 kts | 54° |
| 2026-04-22 09:10 | -29.25887 | 160.57318 | 39141 ft | 546 kts | 54° |
| 2026-04-22 09:11 | -29.21718 | 160.64592 | 39124 ft | 546 kts | 54° |
| 2026-04-22 09:11 | -29.17544 | 160.71860 | 39117 ft | 546 kts | 53° |
| 2026-04-22 09:12 | -29.13357 | 160.79139 | 39129 ft | 546 kts | 53° |
| 2026-04-22 09:12 | -29.09202 | 160.86348 | 39128 ft | 546 kts | 53° |
| 2026-04-22 09:13 | -29.05014 | 160.93604 | 39133 ft | 546 kts | 53° |
| 2026-04-22 09:13 | -29.00824 | 161.00849 | 39131 ft | 545 kts | 53° |
| 2026-04-22 09:14 | -28.96640 | 161.08072 | 39126 ft | 545 kts | 53° |
| 2026-04-22 09:14 | -28.92477 | 161.15248 | 39118 ft | 544 kts | 53° |
| 2026-04-22 09:15 | -28.88289 | 161.22452 | 39116 ft | 544 kts | 53° |
| 2026-04-22 09:15 | -28.84106 | 161.29637 | 39121 ft | 543 kts | 53° |
| 2026-04-22 09:16 | -28.79918 | 161.36816 | 39120 ft | 543 kts | 53° |
| 2026-04-22 09:16 | -28.75755 | 161.43941 | 39121 ft | 542 kts | 53° |
| 2026-04-22 09:17 | -28.71564 | 161.51102 | 39117 ft | 542 kts | 52° |
| 2026-04-22 09:17 | -28.67380 | 161.58239 | 39115 ft | 541 kts | 52° |
| 2026-04-22 09:18 | -28.63220 | 161.65322 | 39112 ft | 541 kts | 52° |
| 2026-04-22 09:18 | -28.59033 | 161.72441 | 39117 ft | 541 kts | 52° |
| 2026-04-22 09:19 | -28.54847 | 161.79545 | 39118 ft | 540 kts | 52° |
| 2026-04-22 09:19 | -28.50649 | 161.86659 | 39118 ft | 540 kts | 52° |
| 2026-04-22 09:20 | -28.46456 | 161.93750 | 39113 ft | 540 kts | 52° |
| 2026-04-22 09:20 | -28.42262 | 162.00833 | 39114 ft | 540 kts | 52° |
| 2026-04-22 09:21 | -28.38093 | 162.07862 | 39109 ft | 540 kts | 52° |
| 2026-04-22 09:21 | -28.33896 | 162.14925 | 39111 ft | 539 kts | 52° |
| 2026-04-22 09:22 | -28.29689 | 162.21994 | 39110 ft | 539 kts | 52° |
| 2026-04-22 09:22 | -28.25485 | 162.29045 | 39113 ft | 539 kts | 52° |
| 2026-04-22 09:23 | -28.21278 | 162.36091 | 39106 ft | 539 kts | 52° |
| 2026-04-22 09:23 | -28.17069 | 162.43128 | 39109 ft | 539 kts | 52° |
| 2026-04-22 09:24 | -28.12855 | 162.50162 | 39109 ft | 539 kts | 52° |
| 2026-04-22 09:24 | -28.08640 | 162.57188 | 39106 ft | 539 kts | 52° |
| 2026-04-22 09:25 | -28.04419 | 162.64210 | 39105 ft | 539 kts | 51° |
| 2026-04-22 09:25 | -28.00226 | 162.71176 | 39103 ft | 539 kts | 51° |
| 2026-04-22 09:26 | -27.96003 | 162.78180 | 39107 ft | 539 kts | 51° |
| 2026-04-22 09:26 | -27.91772 | 162.85190 | 39109 ft | 539 kts | 51° |
| 2026-04-22 09:27 | -27.87541 | 162.92193 | 39104 ft | 539 kts | 51° |
| 2026-04-22 09:27 | -27.83312 | 162.99181 | 39105 ft | 539 kts | 51° |
| 2026-04-22 09:28 | -27.79063 | 163.06159 | 39104 ft | 539 kts | 51° |
| 2026-04-22 09:28 | -27.74809 | 163.13134 | 39102 ft | 539 kts | 51° |
| 2026-04-22 09:29 | -27.70587 | 163.20067 | 39101 ft | 539 kts | 51° |
| 2026-04-22 09:29 | -27.66341 | 163.27036 | 39096 ft | 539 kts | 51° |
| 2026-04-22 09:30 | -27.62083 | 163.34009 | 39107 ft | 539 kts | 51° |
| 2026-04-22 09:30 | -27.57823 | 163.40969 | 39104 ft | 539 kts | 51° |
| 2026-04-22 09:31 | -27.53557 | 163.47929 | 39104 ft | 539 kts | 51° |
| 2026-04-22 09:31 | -27.49288 | 163.54882 | 39102 ft | 539 kts | 51° |
| 2026-04-22 09:32 | -27.45048 | 163.61777 | 39098 ft | 539 kts | 51° |
| 2026-04-22 09:32 | -27.40777 | 163.68712 | 39099 ft | 538 kts | 50° |
| 2026-04-22 09:33 | -27.36506 | 163.75634 | 39099 ft | 538 kts | 50° |
| 2026-04-22 09:33 | -27.32232 | 163.82552 | 39097 ft | 538 kts | 50° |
| 2026-04-22 09:34 | -27.27955 | 163.89463 | 39104 ft | 538 kts | 50° |
| 2026-04-22 09:34 | -27.23680 | 163.96361 | 39098 ft | 537 kts | 50° |
| 2026-04-22 09:35 | -27.17287 | 164.06655 | 39096 ft | 537 kts | 50° |
| 2026-04-22 09:35 | -27.13006 | 164.13535 | 39096 ft | 537 kts | 50° |
| 2026-04-22 09:36 | -27.08720 | 164.20413 | 39094 ft | 537 kts | 50° |
| 2026-04-22 09:36 | -27.04434 | 164.27279 | 39091 ft | 537 kts | 50° |
| 2026-04-22 09:37 | -27.00177 | 164.34090 | 39096 ft | 537 kts | 50° |
| 2026-04-22 09:37 | -26.95882 | 164.40950 | 39096 ft | 537 kts | 50° |
| 2026-04-22 09:38 | -26.91587 | 164.47800 | 39103 ft | 537 kts | 50° |
| 2026-04-22 09:38 | -26.87288 | 164.54646 | 39093 ft | 537 kts | 50° |
| 2026-04-22 09:39 | -26.82998 | 164.61468 | 39098 ft | 537 kts | 49° |
| 2026-04-22 09:39 | -26.78696 | 164.68297 | 39101 ft | 536 kts | 49° |
| 2026-04-22 09:40 | -26.74387 | 164.75128 | 39095 ft | 536 kts | 49° |
| 2026-04-22 09:40 | -26.70078 | 164.81948 | 39096 ft | 536 kts | 49° |
| 2026-04-22 09:41 | -26.65802 | 164.88705 | 39095 ft | 536 kts | 49° |
| 2026-04-22 09:41 | -26.61495 | 164.95501 | 39091 ft | 535 kts | 49° |
| 2026-04-22 09:42 | -26.57183 | 165.02296 | 39095 ft | 535 kts | 49° |
| 2026-04-22 09:42 | -26.52874 | 165.09075 | 39091 ft | 535 kts | 49° |
| 2026-04-22 09:43 | -26.48560 | 165.15852 | 39090 ft | 535 kts | 49° |
| 2026-04-22 09:43 | -26.44240 | 165.22628 | 39091 ft | 534 kts | 49° |
| 2026-04-22 09:44 | -26.39953 | 165.29344 | 39090 ft | 534 kts | 49° |
| 2026-04-22 09:44 | -26.35633 | 165.36100 | 39088 ft | 534 kts | 49° |
| 2026-04-22 09:45 | -26.31303 | 165.42862 | 39090 ft | 534 kts | 48° |
| 2026-04-22 09:45 | -26.27009 | 165.49556 | 39092 ft | 534 kts | 48° |
| 2026-04-22 09:46 | -26.22682 | 165.56294 | 39090 ft | 534 kts | 48° |
| 2026-04-22 09:46 | -26.18348 | 165.63032 | 39092 ft | 534 kts | 48° |
| 2026-04-22 09:47 | -26.14046 | 165.69711 | 39095 ft | 534 kts | 48° |
| 2026-04-22 09:47 | -26.09708 | 165.76436 | 39097 ft | 534 kts | 48° |
| 2026-04-22 09:48 | -26.05372 | 165.83148 | 39092 ft | 534 kts | 48° |
| 2026-04-22 09:48 | -26.01030 | 165.89859 | 39101 ft | 534 kts | 48° |
| 2026-04-22 09:49 | -25.96716 | 165.96518 | 39101 ft | 533 kts | 48° |
| 2026-04-22 09:49 | -25.92373 | 166.03212 | 39096 ft | 533 kts | 47° |
| 2026-04-22 09:50 | -25.88759 | 166.08775 | 39092 ft | 533 kts | 47° |
| 2026-04-22 09:50 | -25.83713 | 166.16531 | 39091 ft | 532 kts | 47° |
| 2026-04-22 09:51 | -25.80072 | 166.22119 | 39093 ft | 532 kts | 47° |
| 2026-04-22 09:51 | -25.75751 | 166.28743 | 39095 ft | 532 kts | 47° |
| 2026-04-22 09:52 | -25.71397 | 166.35406 | 39085 ft | 532 kts | 47° |
| 2026-04-22 09:52 | -25.67050 | 166.42050 | 39092 ft | 532 kts | 47° |
| 2026-04-22 09:53 | -25.62724 | 166.48653 | 39091 ft | 531 kts | 47° |
| 2026-04-22 09:53 | -25.58378 | 166.55276 | 39092 ft | 531 kts | 47° |
| 2026-04-22 09:54 | -25.54031 | 166.61893 | 39094 ft | 530 kts | 47° |
| 2026-04-22 09:54 | -25.49681 | 166.68504 | 39093 ft | 530 kts | 47° |
| 2026-04-22 09:55 | -25.45343 | 166.75088 | 39090 ft | 529 kts | 46° |
| 2026-04-22 09:55 | -25.41030 | 166.81625 | 39092 ft | 529 kts | 46° |
| 2026-04-22 09:56 | -25.36678 | 166.88212 | 39092 ft | 529 kts | 46° |
| 2026-04-22 09:56 | -25.32334 | 166.94776 | 39093 ft | 528 kts | 46° |
| 2026-04-22 09:57 | -25.28019 | 167.01290 | 39094 ft | 528 kts | 46° |
| 2026-04-22 09:57 | -25.23674 | 167.07838 | 39091 ft | 527 kts | 46° |
| 2026-04-22 09:58 | -25.19334 | 167.14370 | 39092 ft | 527 kts | 46° |
| 2026-04-22 09:58 | -25.14983 | 167.20910 | 39081 ft | 527 kts | 46° |
| 2026-04-22 09:59 | -25.10671 | 167.27382 | 39088 ft | 527 kts | 46° |
| 2026-04-22 09:59 | -25.06316 | 167.33910 | 39091 ft | 527 kts | 45° |
| 2026-04-22 10:00 | -25.01969 | 167.40417 | 39090 ft | 526 kts | 45° |
| 2026-04-22 10:00 | -24.97649 | 167.46876 | 39090 ft | 526 kts | 45° |
| 2026-04-22 10:01 | -24.93300 | 167.53368 | 39090 ft | 526 kts | 45° |
| 2026-04-22 10:01 | -24.88947 | 167.59860 | 39096 ft | 526 kts | 45° |
| 2026-04-22 10:02 | -24.84599 | 167.66339 | 39092 ft | 526 kts | 45° |
| 2026-04-22 10:02 | -24.80247 | 167.72817 | 39090 ft | 526 kts | 45° |
| 2026-04-22 10:03 | -24.75918 | 167.79235 | 39094 ft | 525 kts | 44° |
| 2026-04-22 10:03 | -24.71555 | 167.85686 | 39094 ft | 525 kts | 44° |
| 2026-04-22 10:04 | -24.67193 | 167.92143 | 39092 ft | 524 kts | 44° |
| 2026-04-22 10:04 | -24.62868 | 167.98542 | 39086 ft | 524 kts | 44° |
| 2026-04-22 10:05 | -24.58511 | 168.04976 | 39092 ft | 524 kts | 44° |
| 2026-04-22 10:05 | -24.54154 | 168.11401 | 39092 ft | 524 kts | 44° |
| 2026-04-22 10:06 | -24.49817 | 168.17787 | 39092 ft | 523 kts | 44° |
| 2026-04-22 10:06 | -24.45461 | 168.24192 | 39092 ft | 523 kts | 44° |
| 2026-04-22 10:07 | -24.41103 | 168.30592 | 39093 ft | 522 kts | 43° |
| 2026-04-22 10:07 | -24.36775 | 168.36940 | 39094 ft | 522 kts | 43° |
| 2026-04-22 10:08 | -24.32424 | 168.43313 | 39093 ft | 522 kts | 43° |
| 2026-04-22 10:08 | -24.28068 | 168.49685 | 39090 ft | 521 kts | 43° |
| 2026-04-22 10:09 | -24.23712 | 168.56049 | 39090 ft | 521 kts | 43° |
| 2026-04-22 10:09 | -24.19359 | 168.62401 | 39086 ft | 521 kts | 43° |
| 2026-04-22 10:10 | -24.15030 | 168.68708 | 39090 ft | 520 kts | 42° |
| 2026-04-22 10:10 | -24.10676 | 168.75045 | 39090 ft | 520 kts | 42° |
| 2026-04-22 10:11 | -24.06322 | 168.81373 | 39086 ft | 520 kts | 42° |
| 2026-04-22 10:11 | -24.01970 | 168.87691 | 39086 ft | 520 kts | 42° |
| 2026-04-22 10:12 | -23.97611 | 168.94011 | 39097 ft | 519 kts | 42° |
| 2026-04-22 10:12 | -23.93280 | 169.00281 | 39088 ft | 519 kts | 42° |
| 2026-04-22 10:13 | -23.88928 | 169.06576 | 39091 ft | 518 kts | 41° |
| 2026-04-22 10:13 | -23.84582 | 169.12852 | 39088 ft | 517 kts | 41° |
| 2026-04-22 10:14 | -23.80254 | 169.19096 | 39088 ft | 516 kts | 41° |
| 2026-04-22 10:14 | -23.75912 | 169.25351 | 39083 ft | 516 kts | 41° |
| 2026-04-22 10:15 | -23.71575 | 169.31591 | 39086 ft | 515 kts | 41° |
| 2026-04-22 10:15 | -23.67240 | 169.37822 | 39081 ft | 515 kts | 41° |
| 2026-04-22 10:16 | -23.62911 | 169.44035 | 39082 ft | 514 kts | 41° |
| 2026-04-22 10:16 | -23.58609 | 169.50202 | 39080 ft | 513 kts | 41° |
| 2026-04-22 10:17 | -23.54286 | 169.56392 | 39075 ft | 513 kts | 41° |
| 2026-04-22 10:17 | -23.49959 | 169.62580 | 39079 ft | 512 kts | 41° |
| 2026-04-22 10:18 | -23.45654 | 169.68729 | 39076 ft | 512 kts | 41° |
| 2026-04-22 10:18 | -23.41335 | 169.74891 | 39076 ft | 511 kts | 40° |
| 2026-04-22 10:19 | -23.37019 | 169.81040 | 39092 ft | 511 kts | 40° |
| 2026-04-22 10:19 | -23.32696 | 169.87191 | 39082 ft | 511 kts | 40° |
| 2026-04-22 10:20 | -23.28401 | 169.93297 | 39081 ft | 510 kts | 40° |
| 2026-04-22 10:20 | -23.24083 | 169.99426 | 39080 ft | 510 kts | 40° |
| 2026-04-22 10:21 | -23.19764 | 170.05551 | 39077 ft | 510 kts | 40° |
| 2026-04-22 10:21 | -23.15441 | 170.11674 | 39075 ft | 509 kts | 40° |
| 2026-04-22 10:22 | -23.11145 | 170.17752 | 39071 ft | 509 kts | 40° |
| 2026-04-22 10:22 | -23.06827 | 170.23853 | 39077 ft | 509 kts | 40° |
| 2026-04-22 10:23 | -23.02510 | 170.29946 | 39075 ft | 508 kts | 40° |
| 2026-04-22 10:23 | -22.98221 | 170.35992 | 39075 ft | 508 kts | 40° |
| 2026-04-22 10:24 | -22.93902 | 170.42072 | 39076 ft | 508 kts | 40° |
| 2026-04-22 10:24 | -22.89587 | 170.48141 | 39075 ft | 508 kts | 40° |
| 2026-04-22 10:25 | -22.85271 | 170.54205 | 39067 ft | 507 kts | 40° |
| 2026-04-22 10:25 | -22.80982 | 170.60222 | 39073 ft | 507 kts | 40° |
| 2026-04-22 10:26 | -22.76666 | 170.66271 | 39075 ft | 507 kts | 40° |
| 2026-04-22 10:26 | -22.72344 | 170.72320 | 39071 ft | 506 kts | 40° |
| 2026-04-22 10:27 | -22.68052 | 170.78321 | 39069 ft | 506 kts | 40° |
| 2026-04-22 10:27 | -22.63734 | 170.84352 | 39066 ft | 506 kts | 40° |
| 2026-04-22 10:28 | -22.59419 | 170.90371 | 39068 ft | 506 kts | 40° |
| 2026-04-22 10:28 | -22.55098 | 170.96392 | 39065 ft | 505 kts | 40° |
| 2026-04-22 10:29 | -22.50810 | 171.02360 | 39064 ft | 505 kts | 40° |
| 2026-04-22 10:29 | -22.46493 | 171.08362 | 39061 ft | 505 kts | 40° |
| 2026-04-22 10:30 | -22.42168 | 171.14368 | 39062 ft | 505 kts | 40° |
| 2026-04-22 10:30 | -22.37845 | 171.20364 | 39066 ft | 505 kts | 40° |
| 2026-04-22 10:31 | -22.33547 | 171.26318 | 39066 ft | 505 kts | 40° |
| 2026-04-22 10:31 | -22.29229 | 171.32295 | 39067 ft | 505 kts | 40° |
| 2026-04-22 10:32 | -22.24907 | 171.38269 | 39068 ft | 504 kts | 40° |
| 2026-04-22 10:32 | -22.20587 | 171.44235 | 39062 ft | 504 kts | 40° |
| 2026-04-22 10:33 | -22.16269 | 171.50194 | 39070 ft | 504 kts | 40° |
| 2026-04-22 10:33 | -22.11951 | 171.56148 | 39064 ft | 504 kts | 40° |
| 2026-04-22 10:34 | -22.07626 | 171.62098 | 39060 ft | 503 kts | 40° |
| 2026-04-22 10:34 | -22.03311 | 171.68012 | 39055 ft | 504 kts | 40° |
| 2026-04-22 10:35 | -21.98977 | 171.73959 | 39055 ft | 504 kts | 40° |
| 2026-04-22 10:35 | -21.94644 | 171.79903 | 39054 ft | 505 kts | 41° |
| 2026-04-22 10:36 | -21.90299 | 171.85856 | 39051 ft | 505 kts | 41° |
| 2026-04-22 10:36 | -21.85977 | 171.91770 | 39048 ft | 506 kts | 41° |
| 2026-04-22 10:37 | -21.79429 | 172.00714 | 39050 ft | 507 kts | 41° |
| 2026-04-22 10:38 | -21.75052 | 172.06685 | 39053 ft | 508 kts | 41° |
| 2026-04-22 10:38 | -21.71400 | 172.11662 | 39060 ft | 509 kts | 41° |
| 2026-04-22 10:39 | -21.66286 | 172.18624 | 39053 ft | 510 kts | 41° |
| 2026-04-22 10:39 | -21.61880 | 172.24616 | 39057 ft | 511 kts | 41° |
| 2026-04-22 10:40 | -21.58205 | 172.29607 | 39076 ft | 512 kts | 41° |
| 2026-04-22 10:40 | -21.53780 | 172.35612 | 39074 ft | 512 kts | 41° |
| 2026-04-22 10:41 | -21.49349 | 172.41621 | 39082 ft | 512 kts | 40° |
| 2026-04-22 10:41 | -21.44934 | 172.47602 | 39094 ft | 510 kts | 40° |
| 2026-04-22 10:42 | -21.40535 | 172.53552 | 39082 ft | 507 kts | 40° |
| 2026-04-22 10:42 | -21.36185 | 172.59430 | 39067 ft | 505 kts | 40° |
| 2026-04-22 10:43 | -21.31814 | 172.65329 | 39047 ft | 504 kts | 40° |
| 2026-04-22 10:43 | -21.27452 | 172.71209 | 39038 ft | 502 kts | 40° |
| 2026-04-22 10:44 | -21.23105 | 172.77063 | 39031 ft | 501 kts | 41° |
| 2026-04-22 10:44 | -21.18754 | 172.82916 | 39026 ft | 501 kts | 41° |
| 2026-04-22 10:45 | -21.14432 | 172.88723 | 39023 ft | 502 kts | 41° |
| 2026-04-22 10:45 | -21.10079 | 172.94567 | 39026 ft | 502 kts | 41° |
| 2026-04-22 10:46 | -21.05713 | 173.00422 | 39027 ft | 503 kts | 41° |
| 2026-04-22 10:46 | -21.01339 | 173.06282 | 39035 ft | 504 kts | 41° |
| 2026-04-22 10:47 | -20.96945 | 173.12162 | 39039 ft | 505 kts | 41° |
| 2026-04-22 10:47 | -20.92549 | 173.18040 | 39046 ft | 506 kts | 42° |
| 2026-04-22 10:48 | -20.88177 | 173.23880 | 39044 ft | 506 kts | 42° |
| 2026-04-22 10:48 | -20.83771 | 173.29758 | 39049 ft | 507 kts | 42° |
| 2026-04-22 10:49 | -20.79359 | 173.35639 | 39050 ft | 507 kts | 42° |
| 2026-04-22 10:49 | -20.74946 | 173.41515 | 39051 ft | 507 kts | 42° |
| 2026-04-22 10:50 | -20.70531 | 173.47388 | 39044 ft | 506 kts | 42° |
| 2026-04-22 10:50 | -20.66115 | 173.53255 | 39042 ft | 506 kts | 42° |
| 2026-04-22 10:51 | -20.61705 | 173.59108 | 39039 ft | 506 kts | 42° |
| 2026-04-22 10:51 | -20.57294 | 173.64958 | 39032 ft | 506 kts | 42° |
| 2026-04-22 10:52 | -20.52909 | 173.70765 | 39032 ft | 506 kts | 42° |
| 2026-04-22 10:52 | -20.48491 | 173.76611 | 39036 ft | 506 kts | 42° |
| 2026-04-22 10:53 | -20.44061 | 173.82467 | 39037 ft | 507 kts | 42° |
| 2026-04-22 10:53 | -20.39620 | 173.88331 | 39031 ft | 508 kts | 42° |
| 2026-04-22 10:54 | -20.35169 | 173.94203 | 39037 ft | 509 kts | 42° |
| 2026-04-22 10:54 | -20.30706 | 174.00084 | 39038 ft | 510 kts | 42° |
| 2026-04-22 10:55 | -20.26238 | 174.05967 | 39041 ft | 511 kts | 42° |
| 2026-04-22 10:55 | -20.21764 | 174.11851 | 39047 ft | 511 kts | 42° |
| 2026-04-22 10:56 | -20.17317 | 174.17695 | 39050 ft | 511 kts | 42° |
| 2026-04-22 10:56 | -20.12830 | 174.23585 | 39051 ft | 510 kts | 42° |
| 2026-04-22 10:57 | -20.08361 | 174.29445 | 39049 ft | 509 kts | 42° |
| 2026-04-22 10:57 | -20.03925 | 174.35256 | 39049 ft | 508 kts | 43° |
| 2026-04-22 10:58 | -19.99469 | 174.41088 | 39040 ft | 507 kts | 43° |
| 2026-04-22 10:58 | -19.95027 | 174.46895 | 39035 ft | 506 kts | 43° |
| 2026-04-22 10:59 | -19.90591 | 174.52688 | 39024 ft | 505 kts | 43° |
| 2026-04-22 10:59 | -19.86156 | 174.58474 | 39023 ft | 504 kts | 43° |
| 2026-04-22 11:00 | -19.81722 | 174.64253 | 39011 ft | 504 kts | 43° |
| 2026-04-22 11:00 | -19.77286 | 174.70030 | 39012 ft | 505 kts | 43° |
| 2026-04-22 11:01 | -19.72846 | 174.75805 | 39016 ft | 505 kts | 43° |
| 2026-04-22 11:01 | -19.68412 | 174.81567 | 39018 ft | 506 kts | 43° |
| 2026-04-22 11:02 | -19.63955 | 174.87355 | 39025 ft | 506 kts | 43° |
| 2026-04-22 11:02 | -19.59493 | 174.93142 | 39029 ft | 507 kts | 43° |
| 2026-04-22 11:03 | -19.55053 | 174.98896 | 39034 ft | 507 kts | 43° |
| 2026-04-22 11:03 | -19.50587 | 175.04679 | 39032 ft | 506 kts | 44° |
| 2026-04-22 11:04 | -19.46122 | 175.10454 | 39035 ft | 506 kts | 44° |
| 2026-04-22 11:04 | -19.41660 | 175.16220 | 39031 ft | 505 kts | 44° |
| 2026-04-22 11:05 | -19.37207 | 175.21969 | 39022 ft | 504 kts | 44° |
| 2026-04-22 11:05 | -19.32786 | 175.27674 | 39015 ft | 504 kts | 44° |
| 2026-04-22 11:06 | -19.28339 | 175.33407 | 39007 ft | 503 kts | 44° |
| 2026-04-22 11:06 | -19.23891 | 175.39131 | 39004 ft | 502 kts | 44° |
| 2026-04-22 11:07 | -19.19449 | 175.44839 | 39002 ft | 502 kts | 44° |
| 2026-04-22 11:07 | -19.15008 | 175.50544 | 39003 ft | 502 kts | 44° |
| 2026-04-22 11:08 | -19.10568 | 175.56245 | 39007 ft | 502 kts | 44° |
| 2026-04-22 11:08 | -19.06151 | 175.61910 | 38999 ft | 503 kts | 44° |
| 2026-04-22 11:09 | -19.01701 | 175.67612 | 38996 ft | 503 kts | 44° |
| 2026-04-22 11:09 | -18.97230 | 175.73334 | 39004 ft | 504 kts | 44° |
| 2026-04-22 11:10 | -18.92761 | 175.79051 | 39006 ft | 505 kts | 45° |
| 2026-04-22 11:10 | -18.88271 | 175.84789 | 39005 ft | 507 kts | 45° |
| 2026-04-22 11:11 | -18.83793 | 175.90505 | 39008 ft | 508 kts | 45° |
| 2026-04-22 11:11 | -18.79277 | 175.96265 | 39011 ft | 509 kts | 45° |
| 2026-04-22 11:12 | -18.74759 | 176.02022 | 39014 ft | 510 kts | 45° |
| 2026-04-22 11:12 | -18.70229 | 176.07789 | 39015 ft | 511 kts | 45° |
| 2026-04-22 11:13 | -18.65686 | 176.13559 | 39017 ft | 511 kts | 45° |
| 2026-04-22 11:13 | -18.61137 | 176.19333 | 39019 ft | 511 kts | 45° |
| 2026-04-22 11:14 | -18.56617 | 176.25065 | 39014 ft | 511 kts | 45° |
| 2026-04-22 11:14 | -18.52073 | 176.30822 | 39010 ft | 511 kts | 45° |
| 2026-04-22 11:15 | -18.47516 | 176.36590 | 39006 ft | 511 kts | 45° |
| 2026-04-22 11:15 | -18.42966 | 176.42344 | 39000 ft | 510 kts | 45° |
| 2026-04-22 11:16 | -18.38442 | 176.48060 | 38996 ft | 510 kts | 45° |
| 2026-04-22 11:16 | -18.33888 | 176.53809 | 38997 ft | 510 kts | 45° |
| 2026-04-22 11:17 | -18.29334 | 176.59552 | 38993 ft | 510 kts | 45° |
| 2026-04-22 11:17 | -18.24803 | 176.65262 | 38999 ft | 510 kts | 45° |
| 2026-04-22 11:18 | -18.20247 | 176.70998 | 38995 ft | 510 kts | 45° |
| 2026-04-22 11:18 | -18.15711 | 176.76702 | 38995 ft | 511 kts | 45° |
| 2026-04-22 11:19 | -18.11152 | 176.82431 | 38995 ft | 511 kts | 45° |
| 2026-04-22 11:19 | -18.06593 | 176.88157 | 38998 ft | 511 kts | 45° |
| 2026-04-22 11:20 | -18.02021 | 176.93894 | 39000 ft | 511 kts | 45° |
| 2026-04-22 11:20 | -17.97454 | 176.99619 | 38998 ft | 511 kts | 45° |
| 2026-04-22 11:21 | -17.92921 | 177.05298 | 38994 ft | 510 kts | 45° |
| 2026-04-22 11:21 | -17.88352 | 177.11016 | 38992 ft | 510 kts | 45° |
| 2026-04-22 11:22 | -17.83783 | 177.16729 | 39002 ft | 510 kts | 45° |
| 2026-04-22 11:22 | -17.79220 | 177.22430 | 39006 ft | 509 kts | 45° |
| 2026-04-22 11:23 | -17.74681 | 177.28096 | 39014 ft | 509 kts | 45° |
| 2026-04-22 11:23 | -17.70124 | 177.33779 | 39021 ft | 509 kts | 45° |
| 2026-04-22 11:24 | -17.65562 | 177.39463 | 39024 ft | 508 kts | 45° |
| 2026-04-22 11:24 | -17.61033 | 177.45164 | 39018 ft | 508 kts | 46° |
| 2026-04-22 11:25 | -17.56561 | 177.50829 | 39013 ft | 507 kts | 46° |
| 2026-04-22 11:25 | -17.52051 | 177.56527 | 39011 ft | 506 kts | 46° |
| 2026-04-22 11:26 | -17.47549 | 177.62204 | 39001 ft | 506 kts | 46° |
| 2026-04-22 11:26 | -17.43050 | 177.67872 | 38993 ft | 505 kts | 46° |
| 2026-04-22 11:27 | -17.38590 | 177.73486 | 38995 ft | 504 kts | 46° |
| 2026-04-22 11:27 | -17.34100 | 177.79133 | 38993 ft | 503 kts | 46° |
| 2026-04-22 11:28 | -17.30377 | 177.83812 | 38986 ft | 503 kts | 46° |
| 2026-04-22 11:28 | -17.25895 | 177.89440 | 38988 ft | 502 kts | 46° |
| 2026-04-22 11:29 | -17.21421 | 177.95054 | 38985 ft | 502 kts | 46° |
| 2026-04-22 11:29 | -17.16974 | 178.00630 | 38992 ft | 502 kts | 46° |
| 2026-04-22 11:30 | -17.12499 | 178.06238 | 38984 ft | 501 kts | 46° |
| 2026-04-22 11:30 | -17.08023 | 178.11840 | 38983 ft | 501 kts | 46° |
| 2026-04-22 11:31 | -17.03549 | 178.17437 | 38985 ft | 501 kts | 46° |
| 2026-04-22 11:31 | -16.99076 | 178.23028 | 38985 ft | 501 kts | 46° |
| 2026-04-22 11:32 | -16.94634 | 178.28574 | 38986 ft | 500 kts | 46° |
| 2026-04-22 11:32 | -16.90155 | 178.34163 | 38986 ft | 500 kts | 46° |
| 2026-04-22 11:33 | -16.85690 | 178.39730 | 38987 ft | 500 kts | 46° |
| 2026-04-22 11:33 | -16.81225 | 178.45292 | 38984 ft | 499 kts | 46° |
| 2026-04-22 11:34 | -16.76788 | 178.50815 | 38987 ft | 499 kts | 46° |
| 2026-04-22 11:34 | -16.72324 | 178.56366 | 38990 ft | 499 kts | 46° |
| 2026-04-22 11:35 | -16.67867 | 178.61906 | 38991 ft | 498 kts | 46° |
| 2026-04-22 11:35 | -16.63408 | 178.67443 | 38985 ft | 498 kts | 46° |
| 2026-04-22 11:36 | -16.58955 | 178.72969 | 38988 ft | 497 kts | 46° |
| 2026-04-22 11:36 | -16.54512 | 178.78443 | 38981 ft | 497 kts | 46° |
| 2026-04-22 11:37 | -16.50033 | 178.83931 | 38972 ft | 497 kts | 46° |
| 2026-04-22 11:37 | -16.45552 | 178.89426 | 38973 ft | 497 kts | 46° |
| 2026-04-22 11:38 | -16.41084 | 178.94902 | 38974 ft | 498 kts | 46° |
| 2026-04-22 11:38 | -16.34339 | 179.03163 | 38975 ft | 499 kts | 46° |
| 2026-04-22 11:39 | -16.29824 | 179.08687 | 38978 ft | 500 kts | 46° |
| 2026-04-22 11:39 | -16.25337 | 179.14172 | 38983 ft | 501 kts | 46° |
| 2026-04-22 11:40 | -16.20808 | 179.19704 | 38991 ft | 502 kts | 46° |
| 2026-04-22 11:40 | -16.16266 | 179.25249 | 38992 ft | 502 kts | 46° |
| 2026-04-22 11:41 | -16.11731 | 179.30780 | 38999 ft | 502 kts | 46° |
| 2026-04-22 11:41 | -16.07202 | 179.36300 | 38991 ft | 501 kts | 47° |
| 2026-04-22 11:42 | -16.02696 | 179.41787 | 38996 ft | 500 kts | 47° |
| 2026-04-22 11:42 | -15.98182 | 179.47280 | 38990 ft | 498 kts | 47° |
| 2026-04-22 11:43 | -15.93678 | 179.52757 | 38987 ft | 497 kts | 47° |
| 2026-04-22 11:43 | -15.89217 | 179.58176 | 38986 ft | 495 kts | 47° |
| 2026-04-22 11:44 | -15.84742 | 179.63610 | 38970 ft | 494 kts | 47° |
| 2026-04-22 11:44 | -15.80268 | 179.69037 | 38964 ft | 493 kts | 47° |
| 2026-04-22 11:45 | -15.75802 | 179.74452 | 38960 ft | 493 kts | 47° |
| 2026-04-22 11:45 | -15.71375 | 179.79814 | 38965 ft | 492 kts | 47° |
| 2026-04-22 11:46 | -15.66914 | 179.85214 | 38967 ft | 492 kts | 47° |
| 2026-04-22 11:46 | -15.62450 | 179.90614 | 38967 ft | 492 kts | 47° |
| 2026-04-22 11:47 | -15.57989 | 179.96007 | 38969 ft | 493 kts | 47° |
| 2026-04-22 11:47 | -15.53524 | -179.98601 | 38990 ft | 493 kts | 47° |
| 2026-04-22 11:48 | -15.49055 | -179.93207 | 38990 ft | 492 kts | 47° |
| 2026-04-22 11:48 | -15.44589 | -179.87820 | 38978 ft | 492 kts | 47° |
| 2026-04-22 11:49 | -15.40124 | -179.82438 | 38969 ft | 492 kts | 47° |
| 2026-04-22 11:49 | -15.35652 | -179.77052 | 38960 ft | 493 kts | 47° |
| 2026-04-22 11:50 | -15.31206 | -179.71701 | 38958 ft | 493 kts | 47° |
| 2026-04-22 11:50 | -15.26729 | -179.66313 | 38960 ft | 493 kts | 47° |
| 2026-04-22 11:51 | -15.22257 | -179.60920 | 38961 ft | 493 kts | 47° |
| 2026-04-22 11:51 | -15.17819 | -179.55568 | 38972 ft | 493 kts | 47° |
| 2026-04-22 11:52 | -15.13349 | -179.50181 | 38987 ft | 493 kts | 47° |
| 2026-04-22 11:52 | -15.08883 | -179.44805 | 38983 ft | 492 kts | 47° |
| 2026-04-22 11:53 | -15.04416 | -179.39432 | 38983 ft | 491 kts | 47° |
| 2026-04-22 11:53 | -14.99960 | -179.34076 | 38984 ft | 490 kts | 47° |
| 2026-04-22 11:54 | -14.95514 | -179.28737 | 38971 ft | 489 kts | 47° |
| 2026-04-22 11:54 | -14.91077 | -179.23411 | 38968 ft | 488 kts | 47° |
| 2026-04-22 11:55 | -14.86677 | -179.18133 | 38958 ft | 487 kts | 47° |
| 2026-04-22 11:55 | -14.82262 | -179.12841 | 38971 ft | 486 kts | 47° |
| 2026-04-22 11:56 | -14.77846 | -179.07551 | 38971 ft | 485 kts | 47° |
| 2026-04-22 11:56 | -14.73435 | -179.02272 | 38950 ft | 485 kts | 47° |
| 2026-04-22 11:57 | -14.69020 | -178.96990 | 38950 ft | 486 kts | 47° |
| 2026-04-22 11:57 | -14.64601 | -178.91708 | 38953 ft | 487 kts | 47° |
| 2026-04-22 11:58 | -14.60161 | -178.86405 | 38966 ft | 488 kts | 47° |
| 2026-04-22 11:58 | -14.55740 | -178.81127 | 38952 ft | 489 kts | 47° |
| 2026-04-22 11:59 | -14.51279 | -178.75805 | 38965 ft | 491 kts | 47° |
| 2026-04-22 11:59 | -14.46805 | -178.70471 | 38963 ft | 492 kts | 47° |
| 2026-04-22 12:00 | -14.42316 | -178.65124 | 38971 ft | 493 kts | 47° |
| 2026-04-22 12:00 | -14.37820 | -178.59771 | 38974 ft | 494 kts | 47° |
| 2026-04-22 12:01 | -14.33319 | -178.54416 | 38961 ft | 495 kts | 47° |
| 2026-04-22 12:01 | -14.28810 | -178.49054 | 38968 ft | 495 kts | 47° |
| 2026-04-22 12:02 | -14.24291 | -178.43685 | 38969 ft | 496 kts | 47° |
| 2026-04-22 12:02 | -14.19770 | -178.38317 | 38968 ft | 496 kts | 47° |
| 2026-04-22 12:03 | -14.15269 | -178.32976 | 38961 ft | 496 kts | 47° |
| 2026-04-22 12:03 | -14.10739 | -178.27604 | 38967 ft | 497 kts | 47° |
| 2026-04-22 12:04 | -14.06205 | -178.22232 | 38966 ft | 497 kts | 47° |
| 2026-04-22 12:04 | -14.01667 | -178.16858 | 38973 ft | 497 kts | 48° |
| 2026-04-22 12:05 | -13.97129 | -178.11487 | 38970 ft | 497 kts | 48° |
| 2026-04-22 12:05 | -13.92587 | -178.06114 | 38969 ft | 497 kts | 48° |
| 2026-04-22 12:06 | -13.88045 | -178.00746 | 38965 ft | 496 kts | 48° |
| 2026-04-22 12:06 | -13.83528 | -177.95412 | 38963 ft | 496 kts | 48° |
| 2026-04-22 12:07 | -13.78985 | -177.90048 | 38966 ft | 496 kts | 48° |
| 2026-04-22 12:07 | -13.74438 | -177.84685 | 38965 ft | 496 kts | 48° |
| 2026-04-22 12:08 | -13.69919 | -177.79358 | 38956 ft | 496 kts | 48° |
| 2026-04-22 12:08 | -13.65374 | -177.74003 | 38964 ft | 496 kts | 48° |
| 2026-04-22 12:09 | -13.60834 | -177.68657 | 38965 ft | 496 kts | 48° |
| 2026-04-22 12:09 | -13.56307 | -177.63331 | 38966 ft | 496 kts | 48° |
| 2026-04-22 12:10 | -13.51756 | -177.57980 | 38967 ft | 497 kts | 48° |
| 2026-04-22 12:10 | -13.47209 | -177.52636 | 38963 ft | 497 kts | 48° |
| 2026-04-22 12:11 | -13.42653 | -177.47286 | 38962 ft | 497 kts | 48° |
| 2026-04-22 12:11 | -13.38092 | -177.41932 | 38964 ft | 497 kts | 48° |
| 2026-04-22 12:12 | -13.33558 | -177.36615 | 38951 ft | 498 kts | 48° |
| 2026-04-22 12:12 | -13.28988 | -177.31257 | 38963 ft | 499 kts | 48° |
| 2026-04-22 12:13 | -13.24405 | -177.25889 | 38963 ft | 499 kts | 48° |
| 2026-04-22 12:13 | -13.19821 | -177.20523 | 38953 ft | 500 kts | 48° |
| 2026-04-22 12:14 | -13.15228 | -177.15148 | 38963 ft | 500 kts | 48° |
| 2026-04-22 12:14 | -13.10657 | -177.09804 | 38962 ft | 501 kts | 49° |
| 2026-04-22 12:15 | -13.06054 | -177.04423 | 38960 ft | 502 kts | 49° |
| 2026-04-22 12:15 | -13.02216 | -176.99939 | 38962 ft | 503 kts | 49° |
| 2026-04-22 12:16 | -12.97588 | -176.94548 | 38964 ft | 503 kts | 49° |
| 2026-04-22 12:16 | -12.92957 | -176.89158 | 38968 ft | 504 kts | 49° |
| 2026-04-22 12:17 | -12.88326 | -176.83766 | 38972 ft | 504 kts | 49° |
| 2026-04-22 12:17 | -12.83713 | -176.78397 | 38970 ft | 504 kts | 49° |
| 2026-04-22 12:18 | -12.79080 | -176.73009 | 38971 ft | 503 kts | 49° |
| 2026-04-22 12:18 | -12.74455 | -176.67634 | 38971 ft | 502 kts | 49° |
| 2026-04-22 12:19 | -12.69825 | -176.62257 | 38969 ft | 502 kts | 49° |
| 2026-04-22 12:19 | -12.65237 | -176.56933 | 38945 ft | 501 kts | 49° |
| 2026-04-22 12:20 | -12.60633 | -176.51591 | 38942 ft | 500 kts | 49° |
| 2026-04-22 12:20 | -12.56025 | -176.46250 | 38968 ft | 500 kts | 49° |
| 2026-04-22 12:21 | -12.51421 | -176.40916 | 38966 ft | 499 kts | 49° |
| 2026-04-22 12:21 | -12.46810 | -176.35577 | 38942 ft | 499 kts | 49° |
| 2026-04-22 12:22 | -12.42235 | -176.30283 | 38939 ft | 499 kts | 49° |
| 2026-04-22 12:22 | -12.37637 | -176.24964 | 38960 ft | 499 kts | 49° |
| 2026-04-22 12:23 | -12.33029 | -176.19638 | 38966 ft | 499 kts | 49° |
| 2026-04-22 12:23 | -12.28429 | -176.14323 | 38967 ft | 498 kts | 49° |
| 2026-04-22 12:24 | -12.23859 | -176.09047 | 38966 ft | 497 kts | 49° |
| 2026-04-22 12:24 | -12.19278 | -176.03763 | 38967 ft | 496 kts | 49° |
| 2026-04-22 12:25 | -12.14708 | -175.98491 | 38964 ft | 495 kts | 50° |
| 2026-04-22 12:25 | -12.10141 | -175.93228 | 38959 ft | 494 kts | 50° |
| 2026-04-22 12:26 | -12.05576 | -175.87969 | 38939 ft | 494 kts | 50° |
| 2026-04-22 12:26 | -12.01019 | -175.82721 | 38939 ft | 494 kts | 50° |
| 2026-04-22 12:27 | -11.96476 | -175.77494 | 38938 ft | 495 kts | 50° |
| 2026-04-22 12:27 | -11.91890 | -175.72220 | 38942 ft | 496 kts | 49° |
| 2026-04-22 12:28 | -11.87297 | -175.66940 | 38960 ft | 497 kts | 50° |
| 2026-04-22 12:28 | -11.82719 | -175.61682 | 38950 ft | 498 kts | 50° |
| 2026-04-22 12:29 | -11.78109 | -175.56389 | 38960 ft | 499 kts | 50° |
| 2026-04-22 12:29 | -11.73491 | -175.51089 | 38960 ft | 499 kts | 50° |
| 2026-04-22 12:30 | -11.66575 | -175.43159 | 38960 ft | 500 kts | 50° |
| 2026-04-22 12:31 | -11.61948 | -175.37856 | 38954 ft | 500 kts | 50° |
| 2026-04-22 12:31 | -11.57318 | -175.32553 | 38959 ft | 500 kts | 50° |
| 2026-04-22 12:32 | -11.52685 | -175.27249 | 38962 ft | 500 kts | 50° |
| 2026-04-22 12:32 | -11.45767 | -175.19336 | 38959 ft | 499 kts | 50° |
| 2026-04-22 12:33 | -11.41146 | -175.14053 | 38951 ft | 499 kts | 50° |
| 2026-04-22 12:33 | -11.36527 | -175.08775 | 38956 ft | 498 kts | 50° |
| 2026-04-22 12:34 | -11.31906 | -175.03497 | 38944 ft | 498 kts | 50° |
| 2026-04-22 12:34 | -11.27318 | -174.98261 | 38954 ft | 497 kts | 50° |
| 2026-04-22 12:35 | -11.22697 | -174.92989 | 38954 ft | 497 kts | 50° |
| 2026-04-22 12:35 | -11.18111 | -174.87761 | 38957 ft | 497 kts | 50° |
| 2026-04-22 12:36 | -11.13501 | -174.82506 | 38948 ft | 496 kts | 50° |
| 2026-04-22 12:36 | -11.08889 | -174.77254 | 38946 ft | 496 kts | 50° |
| 2026-04-22 12:37 | -11.04287 | -174.72014 | 38934 ft | 496 kts | 50° |
| 2026-04-22 12:37 | -10.99715 | -174.66811 | 38945 ft | 495 kts | 50° |
| 2026-04-22 12:38 | -10.95112 | -174.61576 | 38936 ft | 495 kts | 50° |
| 2026-04-22 12:38 | -10.90516 | -174.56352 | 38952 ft | 494 kts | 50° |
| 2026-04-22 12:39 | -10.83663 | -174.48567 | 38951 ft | 493 kts | 50° |
| 2026-04-22 12:40 | -10.79085 | -174.43370 | 38933 ft | 493 kts | 50° |
| 2026-04-22 12:40 | -10.74514 | -174.38183 | 38931 ft | 492 kts | 50° |
| 2026-04-22 12:41 | -10.69945 | -174.33000 | 38934 ft | 492 kts | 50° |
| 2026-04-22 12:41 | -10.65376 | -174.27821 | 38935 ft | 491 kts | 50° |
| 2026-04-22 12:42 | -10.60807 | -174.22643 | 38956 ft | 491 kts | 50° |
| 2026-04-22 12:42 | -10.56240 | -174.17472 | 38927 ft | 491 kts | 50° |
| 2026-04-22 12:43 | -10.51711 | -174.12345 | 38932 ft | 491 kts | 50° |
| 2026-04-22 12:43 | -10.47136 | -174.07168 | 38949 ft | 491 kts | 50° |
| 2026-04-22 12:44 | -10.42575 | -174.02009 | 38951 ft | 491 kts | 50° |
| 2026-04-22 12:44 | -10.38003 | -173.96841 | 38933 ft | 491 kts | 50° |
| 2026-04-22 12:45 | -10.33437 | -173.91682 | 38928 ft | 491 kts | 50° |
| 2026-04-22 12:45 | -10.28900 | -173.86559 | 38925 ft | 491 kts | 50° |
| 2026-04-22 12:46 | -10.24323 | -173.81392 | 38926 ft | 491 kts | 50° |
| 2026-04-22 12:46 | -10.19758 | -173.76241 | 38925 ft | 491 kts | 50° |
| 2026-04-22 12:47 | -10.15188 | -173.71088 | 38932 ft | 490 kts | 50° |
| 2026-04-22 12:47 | -10.10624 | -173.65944 | 38943 ft | 490 kts | 50° |
| 2026-04-22 12:48 | -10.06056 | -173.60797 | 38928 ft | 490 kts | 50° |
| 2026-04-22 12:48 | -10.01520 | -173.55687 | 38923 ft | 490 kts | 50° |
| 2026-04-22 12:49 | -9.96948 | -173.50541 | 38925 ft | 490 kts | 50° |
| 2026-04-22 12:49 | -9.92378 | -173.45399 | 38926 ft | 490 kts | 50° |
| 2026-04-22 12:50 | -9.87843 | -173.40298 | 38927 ft | 490 kts | 50° |
| 2026-04-22 12:50 | -9.83274 | -173.35162 | 38923 ft | 490 kts | 50° |
| 2026-04-22 12:51 | -9.78709 | -173.30033 | 38926 ft | 490 kts | 50° |
| 2026-04-22 12:51 | -9.74144 | -173.24905 | 38927 ft | 490 kts | 50° |
| 2026-04-22 12:52 | -9.69595 | -173.19798 | 38924 ft | 490 kts | 50° |
| 2026-04-22 12:52 | -9.65021 | -173.14666 | 38925 ft | 490 kts | 49° |
| 2026-04-22 12:53 | -9.60450 | -173.09538 | 38926 ft | 490 kts | 50° |
| 2026-04-22 12:53 | -9.55907 | -173.04443 | 38926 ft | 489 kts | 49° |
| 2026-04-22 12:54 | -9.51341 | -172.99325 | 38920 ft | 489 kts | 50° |
| 2026-04-22 12:54 | -9.46778 | -172.94211 | 38922 ft | 489 kts | 49° |
| 2026-04-22 12:55 | -9.42974 | -172.89953 | 38918 ft | 489 kts | 49° |
| 2026-04-22 12:55 | -9.37639 | -172.83980 | 38918 ft | 489 kts | 50° |
| 2026-04-22 12:56 | -9.33102 | -172.78899 | 38921 ft | 489 kts | 50° |
| 2026-04-22 12:56 | -9.28539 | -172.73788 | 38917 ft | 489 kts | 50° |
| 2026-04-22 12:57 | -9.23972 | -172.68677 | 38915 ft | 489 kts | 50° |
| 2026-04-22 12:57 | -9.19404 | -172.63567 | 38920 ft | 489 kts | 50° |
| 2026-04-22 12:58 | -9.14866 | -172.58492 | 38917 ft | 489 kts | 50° |
| 2026-04-22 12:58 | -9.10297 | -172.53386 | 38921 ft | 489 kts | 50° |
| 2026-04-22 12:59 | -9.05732 | -172.48287 | 38920 ft | 489 kts | 50° |
| 2026-04-22 12:59 | -9.01158 | -172.43179 | 38918 ft | 489 kts | 50° |
| 2026-04-22 13:00 | -8.96618 | -172.38111 | 38916 ft | 489 kts | 50° |
| 2026-04-22 13:00 | -8.92050 | -172.33014 | 38920 ft | 488 kts | 50° |
| 2026-04-22 13:01 | -8.88250 | -172.28776 | 38919 ft | 488 kts | 50° |
| 2026-04-22 13:01 | -8.82919 | -172.22833 | 38916 ft | 488 kts | 49° |
| 2026-04-22 13:02 | -8.78354 | -172.17745 | 38915 ft | 488 kts | 49° |
| 2026-04-22 13:02 | -8.74567 | -172.13526 | 38916 ft | 488 kts | 49° |
| 2026-04-22 13:03 | -8.70000 | -172.08441 | 38917 ft | 487 kts | 49° |
| 2026-04-22 13:03 | -8.65453 | -172.03378 | 38914 ft | 487 kts | 49° |
| 2026-04-22 13:04 | -8.60896 | -171.98308 | 38917 ft | 487 kts | 49° |
| 2026-04-22 13:04 | -8.56341 | -171.93241 | 38918 ft | 487 kts | 49° |
| 2026-04-22 13:05 | -8.51780 | -171.88170 | 38911 ft | 487 kts | 49° |
| 2026-04-22 13:05 | -8.47251 | -171.83136 | 38914 ft | 487 kts | 49° |
| 2026-04-22 13:06 | -8.42692 | -171.78070 | 38911 ft | 487 kts | 49° |
| 2026-04-22 13:06 | -8.38129 | -171.73003 | 38911 ft | 487 kts | 49° |
| 2026-04-22 13:07 | -8.33570 | -171.67942 | 38909 ft | 487 kts | 49° |
| 2026-04-22 13:07 | -8.29010 | -171.62881 | 38913 ft | 486 kts | 49° |
| 2026-04-22 13:08 | -8.24485 | -171.57861 | 38911 ft | 486 kts | 49° |
| 2026-04-22 13:08 | -8.19921 | -171.52799 | 38915 ft | 486 kts | 49° |
| 2026-04-22 13:09 | -8.15366 | -171.47749 | 38911 ft | 486 kts | 49° |
| 2026-04-22 13:09 | -8.10851 | -171.42747 | 38911 ft | 485 kts | 49° |
| 2026-04-22 13:10 | -8.06304 | -171.37710 | 38912 ft | 485 kts | 49° |
| 2026-04-22 13:10 | -8.01764 | -171.32683 | 38909 ft | 484 kts | 49° |
| 2026-04-22 13:11 | -7.97232 | -171.27665 | 38907 ft | 484 kts | 49° |
| 2026-04-22 13:11 | -7.92695 | -171.22645 | 38907 ft | 483 kts | 49° |
| 2026-04-22 13:12 | -7.88162 | -171.17631 | 38907 ft | 483 kts | 49° |
| 2026-04-22 13:12 | -7.83635 | -171.12624 | 38905 ft | 483 kts | 49° |
| 2026-04-22 13:13 | -7.79105 | -171.07616 | 38907 ft | 483 kts | 49° |
| 2026-04-22 13:13 | -7.74583 | -171.02620 | 38904 ft | 482 kts | 49° |
| 2026-04-22 13:14 | -7.70058 | -170.97621 | 38903 ft | 482 kts | 49° |
| 2026-04-22 13:14 | -7.65559 | -170.92653 | 38904 ft | 482 kts | 49° |
| 2026-04-22 13:15 | -7.61031 | -170.87655 | 38905 ft | 482 kts | 49° |
| 2026-04-22 13:15 | -7.56503 | -170.82658 | 38906 ft | 482 kts | 49° |
| 2026-04-22 13:16 | -7.51975 | -170.77663 | 38904 ft | 482 kts | 49° |
| 2026-04-22 13:16 | -7.47446 | -170.72668 | 38905 ft | 482 kts | 49° |
| 2026-04-22 13:17 | -7.42916 | -170.67674 | 38908 ft | 482 kts | 49° |
| 2026-04-22 13:17 | -7.38389 | -170.62685 | 38905 ft | 482 kts | 49° |
| 2026-04-22 13:18 | -7.33862 | -170.57698 | 38907 ft | 482 kts | 49° |
| 2026-04-22 13:18 | -7.29360 | -170.52739 | 38904 ft | 482 kts | 49° |
| 2026-04-22 13:19 | -7.24836 | -170.47758 | 38904 ft | 482 kts | 49° |
| 2026-04-22 13:19 | -7.20295 | -170.42761 | 38898 ft | 483 kts | 49° |
| 2026-04-22 13:20 | -7.15760 | -170.37771 | 38904 ft | 483 kts | 49° |
| 2026-04-22 13:20 | -7.11225 | -170.32783 | 38905 ft | 483 kts | 49° |
| 2026-04-22 13:21 | -7.06694 | -170.27800 | 38903 ft | 483 kts | 49° |
| 2026-04-22 13:21 | -7.02154 | -170.22809 | 38901 ft | 483 kts | 49° |
| 2026-04-22 13:22 | -6.97616 | -170.17823 | 38904 ft | 483 kts | 49° |
| 2026-04-22 13:22 | -6.93103 | -170.12865 | 38901 ft | 483 kts | 49° |
| 2026-04-22 13:23 | -6.88555 | -170.07870 | 38896 ft | 483 kts | 49° |
| 2026-04-22 13:23 | -6.84010 | -170.02880 | 38892 ft | 483 kts | 49° |
| 2026-04-22 13:24 | -6.79462 | -169.97888 | 38895 ft | 484 kts | 49° |
| 2026-04-22 13:24 | -6.74912 | -169.92896 | 38893 ft | 484 kts | 49° |
| 2026-04-22 13:25 | -6.70361 | -169.87904 | 38895 ft | 484 kts | 49° |
| 2026-04-22 13:25 | -6.65806 | -169.82909 | 38896 ft | 484 kts | 49° |
| 2026-04-22 13:26 | -6.61245 | -169.77908 | 38899 ft | 485 kts | 49° |
| 2026-04-22 13:26 | -6.56715 | -169.72945 | 38897 ft | 485 kts | 49° |
| 2026-04-22 13:27 | -6.52150 | -169.67943 | 38897 ft | 485 kts | 49° |
| 2026-04-22 13:27 | -6.47576 | -169.62933 | 38892 ft | 485 kts | 49° |
| 2026-04-22 13:28 | -6.43004 | -169.57927 | 38892 ft | 486 kts | 49° |
| 2026-04-22 13:28 | -6.38433 | -169.52923 | 38893 ft | 486 kts | 49° |
| 2026-04-22 13:29 | -6.33890 | -169.47952 | 38894 ft | 486 kts | 49° |
| 2026-04-22 13:29 | -6.29309 | -169.42939 | 38895 ft | 486 kts | 49° |
| 2026-04-22 13:30 | -6.24736 | -169.37938 | 38889 ft | 486 kts | 49° |
| 2026-04-22 13:30 | -6.20155 | -169.32929 | 38892 ft | 486 kts | 49° |
| 2026-04-22 13:31 | -6.15572 | -169.27920 | 38890 ft | 486 kts | 49° |
| 2026-04-22 13:31 | -6.10995 | -169.22917 | 38888 ft | 486 kts | 49° |
| 2026-04-22 13:32 | -6.06443 | -169.17944 | 38886 ft | 486 kts | 49° |
| 2026-04-22 13:32 | -6.01852 | -169.12930 | 38889 ft | 487 kts | 49° |
| 2026-04-22 13:33 | -5.97264 | -169.07919 | 38886 ft | 487 kts | 49° |
| 2026-04-22 13:33 | -5.92676 | -169.02910 | 38889 ft | 487 kts | 49° |
| 2026-04-22 13:34 | -5.88084 | -168.97899 | 38885 ft | 487 kts | 49° |
| 2026-04-22 13:34 | -5.83486 | -168.92882 | 38885 ft | 488 kts | 49° |
| 2026-04-22 13:35 | -5.78891 | -168.87870 | 38886 ft | 488 kts | 49° |
| 2026-04-22 13:35 | -5.74288 | -168.82851 | 38887 ft | 488 kts | 49° |
| 2026-04-22 13:36 | -5.69716 | -168.77867 | 38884 ft | 489 kts | 49° |
| 2026-04-22 13:36 | -5.65105 | -168.72841 | 38886 ft | 489 kts | 49° |
| 2026-04-22 13:37 | -5.60492 | -168.67813 | 38883 ft | 489 kts | 49° |
| 2026-04-22 13:37 | -5.55875 | -168.62784 | 38883 ft | 490 kts | 49° |
| 2026-04-22 13:38 | -5.51283 | -168.57782 | 38883 ft | 490 kts | 49° |
| 2026-04-22 13:38 | -5.44348 | -168.50231 | 38883 ft | 491 kts | 49° |
| 2026-04-22 13:39 | -5.39709 | -168.45183 | 38883 ft | 491 kts | 49° |
| 2026-04-22 13:39 | -5.35074 | -168.40138 | 38886 ft | 492 kts | 49° |
| 2026-04-22 13:40 | -5.30431 | -168.35086 | 38883 ft | 492 kts | 49° |
| 2026-04-22 13:40 | -5.25783 | -168.30030 | 38885 ft | 493 kts | 49° |
| 2026-04-22 13:41 | -5.21155 | -168.24998 | 38882 ft | 493 kts | 49° |
| 2026-04-22 13:41 | -5.16491 | -168.19928 | 38883 ft | 494 kts | 49° |
| 2026-04-22 13:42 | -5.11822 | -168.14852 | 38877 ft | 495 kts | 49° |
| 2026-04-22 13:42 | -5.07146 | -168.09770 | 38881 ft | 496 kts | 49° |
| 2026-04-22 13:43 | -5.02462 | -168.04680 | 38881 ft | 496 kts | 49° |
| 2026-04-22 13:43 | -4.97803 | -167.99620 | 38884 ft | 497 kts | 48° |
| 2026-04-22 13:44 | -4.93103 | -167.94526 | 38884 ft | 498 kts | 48° |
| 2026-04-22 13:44 | -4.88397 | -167.89422 | 38884 ft | 498 kts | 48° |
| 2026-04-22 13:45 | -4.83692 | -167.84319 | 38887 ft | 498 kts | 48° |
| 2026-04-22 13:45 | -4.78987 | -167.79216 | 38885 ft | 498 kts | 48° |
| 2026-04-22 13:46 | -4.74276 | -167.74110 | 38880 ft | 499 kts | 48° |
| 2026-04-22 13:46 | -4.69583 | -167.69023 | 38880 ft | 499 kts | 48° |
| 2026-04-22 13:47 | -4.64856 | -167.63903 | 38885 ft | 499 kts | 48° |
| 2026-04-22 13:47 | -4.60134 | -167.58786 | 38878 ft | 500 kts | 48° |
| 2026-04-22 13:48 | -4.55428 | -167.53689 | 38882 ft | 501 kts | 48° |
| 2026-04-22 13:48 | -4.51484 | -167.49418 | 38884 ft | 501 kts | 47° |
| 2026-04-22 13:49 | -4.45972 | -167.43450 | 38884 ft | 501 kts | 47° |
| 2026-04-22 13:49 | -4.42023 | -167.39176 | 38888 ft | 502 kts | 47° |
| 2026-04-22 13:50 | -4.37284 | -167.34047 | 38883 ft | 502 kts | 47° |
| 2026-04-22 13:50 | -4.32538 | -167.28912 | 38885 ft | 502 kts | 47° |
| 2026-04-22 13:51 | -4.27789 | -167.23774 | 38885 ft | 502 kts | 47° |
| 2026-04-22 13:51 | -4.23044 | -167.18642 | 38883 ft | 502 kts | 47° |
| 2026-04-22 13:52 | -4.18297 | -167.13509 | 38883 ft | 502 kts | 47° |
| 2026-04-22 13:52 | -4.13555 | -167.08382 | 38882 ft | 502 kts | 46° |
| 2026-04-22 13:53 | -4.08843 | -167.03288 | 38884 ft | 502 kts | 46° |
| 2026-04-22 13:53 | -4.04095 | -166.98156 | 38884 ft | 501 kts | 46° |
| 2026-04-22 13:54 | -3.99354 | -166.93034 | 38884 ft | 501 kts | 46° |
| 2026-04-22 13:54 | -3.94597 | -166.87894 | 38886 ft | 501 kts | 46° |
| 2026-04-22 13:55 | -3.89884 | -166.82803 | 38884 ft | 501 kts | 46° |
| 2026-04-22 13:55 | -3.85147 | -166.77688 | 38881 ft | 500 kts | 46° |
| 2026-04-22 13:56 | -3.80399 | -166.72561 | 38879 ft | 500 kts | 46° |
| 2026-04-22 13:56 | -3.75689 | -166.67476 | 38876 ft | 500 kts | 46° |
| 2026-04-22 13:57 | -3.70963 | -166.62374 | 38876 ft | 500 kts | 46° |
| 2026-04-22 13:57 | -3.66234 | -166.57271 | 38874 ft | 499 kts | 46° |
| 2026-04-22 13:58 | -3.61505 | -166.52167 | 38878 ft | 499 kts | 46° |
| 2026-04-22 13:58 | -3.56772 | -166.47061 | 38875 ft | 499 kts | 46° |
| 2026-04-22 13:59 | -3.52079 | -166.41998 | 38877 ft | 499 kts | 46° |
| 2026-04-22 13:59 | -3.47351 | -166.36899 | 38876 ft | 499 kts | 46° |
| 2026-04-22 14:00 | -3.42623 | -166.31801 | 38875 ft | 499 kts | 46° |
| 2026-04-22 14:00 | -3.37894 | -166.26702 | 38879 ft | 499 kts | 46° |
| 2026-04-22 14:01 | -3.33168 | -166.21607 | 38877 ft | 499 kts | 46° |
| 2026-04-22 14:01 | -3.28475 | -166.16548 | 38873 ft | 499 kts | 45° |
| 2026-04-22 14:02 | -3.23748 | -166.11454 | 38876 ft | 499 kts | 45° |
| 2026-04-22 14:02 | -3.19019 | -166.06358 | 38873 ft | 499 kts | 45° |
| 2026-04-22 14:03 | -3.14323 | -166.01299 | 38878 ft | 498 kts | 45° |
| 2026-04-22 14:03 | -3.09598 | -165.96209 | 38882 ft | 498 kts | 45° |
| 2026-04-22 14:04 | -3.04873 | -165.91119 | 38875 ft | 498 kts | 45° |
| 2026-04-22 14:04 | -3.00156 | -165.86039 | 38876 ft | 498 kts | 45° |
| 2026-04-22 14:05 | -2.95436 | -165.80957 | 38877 ft | 498 kts | 45° |
| 2026-04-22 14:06 | -2.88391 | -165.73372 | 38876 ft | 497 kts | 45° |
| 2026-04-22 14:06 | -2.83684 | -165.68305 | 38874 ft | 497 kts | 45° |
| 2026-04-22 14:07 | -2.78974 | -165.63236 | 38873 ft | 497 kts | 45° |
| 2026-04-22 14:07 | -2.74289 | -165.58194 | 38872 ft | 497 kts | 45° |
| 2026-04-22 14:08 | -2.69582 | -165.53129 | 38873 ft | 497 kts | 45° |
| 2026-04-22 14:08 | -2.64869 | -165.48058 | 38871 ft | 497 kts | 45° |
| 2026-04-22 14:09 | -2.60163 | -165.42996 | 38872 ft | 497 kts | 45° |
| 2026-04-22 14:09 | -2.55457 | -165.37933 | 38873 ft | 497 kts | 45° |
| 2026-04-22 14:10 | -2.50778 | -165.32902 | 38875 ft | 497 kts | 45° |
| 2026-04-22 14:10 | -2.46065 | -165.27833 | 38878 ft | 497 kts | 45° |
| 2026-04-22 14:11 | -2.41356 | -165.22769 | 38876 ft | 497 kts | 45° |
| 2026-04-22 14:11 | -2.36650 | -165.17709 | 38878 ft | 497 kts | 45° |
| 2026-04-22 14:12 | -2.31936 | -165.12641 | 38877 ft | 497 kts | 45° |
| 2026-04-22 14:12 | -2.27224 | -165.07576 | 38875 ft | 497 kts | 45° |
| 2026-04-22 14:13 | -2.22544 | -165.02546 | 38877 ft | 497 kts | 45° |
| 2026-04-22 14:13 | -2.17835 | -164.97486 | 38875 ft | 497 kts | 45° |
| 2026-04-22 14:14 | -2.13124 | -164.92423 | 38874 ft | 497 kts | 45° |
| 2026-04-22 14:14 | -2.08407 | -164.87354 | 38872 ft | 497 kts | 45° |
| 2026-04-22 14:15 | -2.03716 | -164.82315 | 38868 ft | 497 kts | 45° |
| 2026-04-22 14:15 | -1.99003 | -164.77252 | 38872 ft | 498 kts | 45° |
| 2026-04-22 14:16 | -1.94274 | -164.72171 | 38873 ft | 498 kts | 45° |
| 2026-04-22 14:16 | -1.89577 | -164.67126 | 38876 ft | 498 kts | 44° |
| 2026-04-22 14:17 | -1.84847 | -164.62047 | 38875 ft | 499 kts | 44° |
| 2026-04-22 14:17 | -1.80115 | -164.56964 | 38879 ft | 499 kts | 44° |
| 2026-04-22 14:18 | -1.75388 | -164.51888 | 38877 ft | 499 kts | 44° |
| 2026-04-22 14:18 | -1.70660 | -164.46812 | 38876 ft | 499 kts | 44° |
| 2026-04-22 14:19 | -1.65931 | -164.41734 | 38875 ft | 499 kts | 44° |
| 2026-04-22 14:19 | -1.61201 | -164.36656 | 38876 ft | 499 kts | 44° |
| 2026-04-22 14:20 | -1.54133 | -164.29068 | 38879 ft | 499 kts | 44° |
| 2026-04-22 14:20 | -1.49400 | -164.23988 | 38879 ft | 499 kts | 44° |
| 2026-04-22 14:21 | -1.42300 | -164.16367 | 38877 ft | 499 kts | 44° |
| 2026-04-22 14:22 | -1.35197 | -164.08744 | 38879 ft | 500 kts | 44° |
| 2026-04-22 14:23 | -1.28088 | -164.01115 | 38876 ft | 500 kts | 44° |
| 2026-04-22 14:23 | -1.23342 | -163.96023 | 38881 ft | 500 kts | 44° |
| 2026-04-22 14:24 | -1.18634 | -163.90968 | 38880 ft | 500 kts | 44° |
| 2026-04-22 14:24 | -1.13892 | -163.85878 | 38879 ft | 500 kts | 44° |
| 2026-04-22 14:25 | -1.09146 | -163.80784 | 38878 ft | 500 kts | 44° |
| 2026-04-22 14:25 | -1.04403 | -163.75693 | 38879 ft | 501 kts | 44° |
| 2026-04-22 14:26 | -0.99654 | -163.70596 | 38882 ft | 501 kts | 44° |
| 2026-04-22 14:26 | -0.94906 | -163.65501 | 38879 ft | 501 kts | 44° |
| 2026-04-22 14:27 | -0.90192 | -163.60442 | 38878 ft | 501 kts | 44° |
| 2026-04-22 14:27 | -0.85441 | -163.55344 | 38877 ft | 501 kts | 44° |
| 2026-04-22 14:28 | -0.80690 | -163.50246 | 38877 ft | 501 kts | 44° |
| 2026-04-22 14:28 | -0.75938 | -163.45147 | 38881 ft | 501 kts | 44° |
| 2026-04-22 14:29 | -0.71187 | -163.40049 | 38879 ft | 501 kts | 44° |
| 2026-04-22 14:29 | -0.66435 | -163.34950 | 38881 ft | 501 kts | 44° |
| 2026-04-22 14:30 | -0.61681 | -163.29850 | 38882 ft | 501 kts | 44° |
| 2026-04-22 14:30 | -0.56930 | -163.24753 | 38882 ft | 501 kts | 44° |
| 2026-04-22 14:31 | -0.52179 | -163.19655 | 38879 ft | 501 kts | 44° |
| 2026-04-22 14:31 | -0.47455 | -163.14587 | 38876 ft | 501 kts | 44° |
| 2026-04-22 14:32 | -0.42695 | -163.09481 | 38877 ft | 501 kts | 44° |
| 2026-04-22 14:32 | -0.37938 | -163.04378 | 38877 ft | 501 kts | 44° |
| 2026-04-22 14:33 | -0.33178 | -162.99272 | 38881 ft | 501 kts | 44° |
| 2026-04-22 14:33 | -0.28424 | -162.94172 | 38882 ft | 501 kts | 44° |
| 2026-04-22 14:34 | -0.23669 | -162.89071 | 38884 ft | 501 kts | 44° |
| 2026-04-22 14:34 | -0.18915 | -162.83971 | 38883 ft | 501 kts | 44° |
| 2026-04-22 14:35 | -0.14154 | -162.78864 | 38886 ft | 501 kts | 44° |
| 2026-04-22 14:35 | -0.09424 | -162.73790 | 38883 ft | 501 kts | 44° |
| 2026-04-22 14:36 | -0.04670 | -162.68690 | 38879 ft | 501 kts | 44° |
| 2026-04-22 14:36 | 0.00082 | -162.63593 | 38878 ft | 501 kts | 44° |
| 2026-04-22 14:37 | 0.04832 | -162.58498 | 38880 ft | 501 kts | 44° |
| 2026-04-22 14:37 | 0.08786 | -162.54256 | 38880 ft | 501 kts | 44° |
| 2026-04-22 14:38 | 0.13541 | -162.49156 | 38878 ft | 500 kts | 44° |
| 2026-04-22 14:38 | 0.18265 | -162.44088 | 38881 ft | 500 kts | 44° |
| 2026-04-22 14:39 | 0.23012 | -162.38996 | 38884 ft | 500 kts | 44° |
| 2026-04-22 14:39 | 0.27759 | -162.33904 | 38876 ft | 499 kts | 44° |
| 2026-04-22 14:40 | 0.34825 | -162.26323 | 38876 ft | 499 kts | 44° |
| 2026-04-22 14:40 | 0.39571 | -162.21233 | 38878 ft | 498 kts | 44° |
| 2026-04-22 14:41 | 0.44292 | -162.16168 | 38874 ft | 498 kts | 44° |
| 2026-04-22 14:41 | 0.48990 | -162.11128 | 38873 ft | 497 kts | 44° |
| 2026-04-22 14:42 | 0.53718 | -162.06055 | 38873 ft | 497 kts | 44° |
| 2026-04-22 14:42 | 0.58436 | -162.00994 | 38871 ft | 497 kts | 44° |
| 2026-04-22 14:43 | 0.63149 | -161.95937 | 38872 ft | 497 kts | 44° |
| 2026-04-22 14:43 | 0.67853 | -161.90890 | 38870 ft | 496 kts | 44° |
| 2026-04-22 14:44 | 0.72539 | -161.85862 | 38877 ft | 496 kts | 44° |
| 2026-04-22 14:44 | 0.77244 | -161.80814 | 38873 ft | 496 kts | 44° |
| 2026-04-22 14:45 | 0.81952 | -161.75762 | 38872 ft | 496 kts | 44° |
| 2026-04-22 14:45 | 0.86654 | -161.70716 | 38871 ft | 496 kts | 44° |
| 2026-04-22 14:46 | 0.91368 | -161.65658 | 38873 ft | 496 kts | 44° |
| 2026-04-22 14:46 | 0.96054 | -161.60629 | 38872 ft | 497 kts | 44° |
| 2026-04-22 14:47 | 1.00776 | -161.55561 | 38871 ft | 497 kts | 44° |
| 2026-04-22 14:47 | 1.05499 | -161.50493 | 38869 ft | 497 kts | 44° |
| 2026-04-22 14:48 | 1.10188 | -161.45461 | 38871 ft | 498 kts | 44° |
| 2026-04-22 14:48 | 1.14942 | -161.40358 | 38875 ft | 498 kts | 44° |
| 2026-04-22 14:49 | 1.19664 | -161.35289 | 38876 ft | 499 kts | 44° |
| 2026-04-22 14:49 | 1.24373 | -161.30235 | 38874 ft | 499 kts | 44° |
| 2026-04-22 14:50 | 1.29107 | -161.25152 | 38877 ft | 499 kts | 44° |
| 2026-04-22 14:50 | 1.33827 | -161.20085 | 38877 ft | 499 kts | 44° |
| 2026-04-22 14:51 | 1.38567 | -161.14996 | 38876 ft | 499 kts | 44° |
| 2026-04-22 14:51 | 1.43301 | -161.09912 | 38879 ft | 499 kts | 44° |
| 2026-04-22 14:52 | 1.48042 | -161.04822 | 38877 ft | 499 kts | 44° |
| 2026-04-22 14:52 | 1.52755 | -160.99760 | 38880 ft | 499 kts | 44° |
| 2026-04-22 14:53 | 1.57490 | -160.94676 | 38879 ft | 499 kts | 44° |
| 2026-04-22 14:53 | 1.62216 | -160.89600 | 38877 ft | 498 kts | 44° |
| 2026-04-22 14:54 | 1.66921 | -160.84546 | 38878 ft | 498 kts | 44° |
| 2026-04-22 14:54 | 1.71641 | -160.79476 | 38873 ft | 498 kts | 44° |
| 2026-04-22 14:55 | 1.76369 | -160.74397 | 38878 ft | 498 kts | 44° |
| 2026-04-22 14:55 | 1.81088 | -160.69328 | 38875 ft | 498 kts | 44° |
| 2026-04-22 14:56 | 1.85824 | -160.64239 | 38877 ft | 499 kts | 44° |
| 2026-04-22 14:56 | 1.90531 | -160.59181 | 38878 ft | 500 kts | 44° |
| 2026-04-22 14:57 | 1.95265 | -160.54094 | 38879 ft | 500 kts | 44° |
| 2026-04-22 14:57 | 2.00018 | -160.48986 | 38879 ft | 501 kts | 44° |
| 2026-04-22 14:58 | 2.04780 | -160.43868 | 38892 ft | 501 kts | 44° |
| 2026-04-22 14:58 | 2.09499 | -160.38796 | 38891 ft | 501 kts | 44° |
| 2026-04-22 14:59 | 2.14251 | -160.33687 | 38892 ft | 501 kts | 44° |
| 2026-04-22 14:59 | 2.19007 | -160.28573 | 38896 ft | 501 kts | 44° |
| 2026-04-22 15:00 | 2.23728 | -160.23496 | 38884 ft | 500 kts | 44° |
| 2026-04-22 15:00 | 2.28462 | -160.18406 | 38880 ft | 499 kts | 44° |
| 2026-04-22 15:01 | 2.33199 | -160.13312 | 38885 ft | 499 kts | 44° |
| 2026-04-22 15:01 | 2.37899 | -160.08256 | 38880 ft | 498 kts | 44° |
| 2026-04-22 15:02 | 2.42621 | -160.03177 | 38878 ft | 498 kts | 44° |
| 2026-04-22 15:02 | 2.47341 | -159.98100 | 38871 ft | 498 kts | 44° |
| 2026-04-22 15:03 | 2.52054 | -159.93029 | 38879 ft | 498 kts | 44° |
| 2026-04-22 15:03 | 2.56774 | -159.87950 | 38881 ft | 498 kts | 44° |
| 2026-04-22 15:04 | 2.61495 | -159.82870 | 38880 ft | 498 kts | 44° |
| 2026-04-22 15:04 | 2.66180 | -159.77827 | 38879 ft | 498 kts | 44° |
| 2026-04-22 15:05 | 2.70904 | -159.72743 | 38886 ft | 498 kts | 44° |
| 2026-04-22 15:05 | 2.75629 | -159.67656 | 38882 ft | 498 kts | 44° |
| 2026-04-22 15:06 | 2.80319 | -159.62606 | 38881 ft | 497 kts | 44° |
| 2026-04-22 15:06 | 2.85030 | -159.57533 | 38884 ft | 497 kts | 44° |
| 2026-04-22 15:07 | 2.89746 | -159.52454 | 38881 ft | 497 kts | 44° |
| 2026-04-22 15:07 | 2.94438 | -159.47400 | 38878 ft | 497 kts | 44° |
| 2026-04-22 15:08 | 2.99120 | -159.42357 | 38882 ft | 497 kts | 44° |
| 2026-04-22 15:08 | 3.03832 | -159.37279 | 38879 ft | 497 kts | 44° |
| 2026-04-22 15:09 | 3.08542 | -159.32205 | 38883 ft | 497 kts | 44° |
| 2026-04-22 15:09 | 3.13245 | -159.27136 | 38879 ft | 497 kts | 44° |
| 2026-04-22 15:10 | 3.17920 | -159.22098 | 38881 ft | 497 kts | 44° |
| 2026-04-22 15:10 | 3.22634 | -159.17016 | 38885 ft | 498 kts | 45° |
| 2026-04-22 15:11 | 3.27347 | -159.11934 | 38885 ft | 498 kts | 45° |
| 2026-04-22 15:11 | 3.32060 | -159.06853 | 38889 ft | 498 kts | 45° |
| 2026-04-22 15:12 | 3.36777 | -159.01765 | 38886 ft | 498 kts | 45° |
| 2026-04-22 15:12 | 3.41476 | -158.96697 | 38885 ft | 499 kts | 45° |
| 2026-04-22 15:13 | 3.46194 | -158.91607 | 38883 ft | 499 kts | 45° |
| 2026-04-22 15:13 | 3.50916 | -158.86512 | 38881 ft | 499 kts | 45° |
| 2026-04-22 15:14 | 3.55639 | -158.81415 | 38889 ft | 499 kts | 45° |
| 2026-04-22 15:14 | 3.60334 | -158.76347 | 38890 ft | 499 kts | 45° |
| 2026-04-22 15:15 | 3.65055 | -158.71251 | 38891 ft | 499 kts | 45° |
| 2026-04-22 15:15 | 3.69773 | -158.66158 | 38891 ft | 499 kts | 45° |
| 2026-04-22 15:16 | 3.74506 | -158.61046 | 38886 ft | 498 kts | 45° |
| 2026-04-22 15:16 | 3.79200 | -158.55976 | 38883 ft | 498 kts | 45° |
| 2026-04-22 15:17 | 3.83914 | -158.50885 | 38885 ft | 498 kts | 45° |
| 2026-04-22 15:17 | 3.88633 | -158.45785 | 38887 ft | 498 kts | 45° |
| 2026-04-22 15:18 | 3.93345 | -158.40694 | 38884 ft | 498 kts | 45° |
| 2026-04-22 15:18 | 3.98066 | -158.35591 | 38895 ft | 498 kts | 45° |
| 2026-04-22 15:19 | 4.02756 | -158.30522 | 38894 ft | 498 kts | 45° |
| 2026-04-22 15:19 | 4.07479 | -158.25415 | 38894 ft | 498 kts | 45° |
| 2026-04-22 15:20 | 4.12196 | -158.20314 | 38886 ft | 498 kts | 45° |
| 2026-04-22 15:20 | 4.16875 | -158.15254 | 38893 ft | 498 kts | 45° |
| 2026-04-22 15:21 | 4.21598 | -158.10144 | 38893 ft | 498 kts | 45° |
| 2026-04-22 15:21 | 4.26309 | -158.05047 | 38895 ft | 498 kts | 45° |
| 2026-04-22 15:22 | 4.30992 | -157.99978 | 38890 ft | 497 kts | 45° |
| 2026-04-22 15:22 | 4.35696 | -157.94887 | 38891 ft | 497 kts | 45° |
| 2026-04-22 15:23 | 4.39601 | -157.90659 | 38894 ft | 497 kts | 45° |
| 2026-04-22 15:23 | 4.44301 | -157.85569 | 38893 ft | 497 kts | 45° |
| 2026-04-22 15:24 | 4.49001 | -157.80480 | 38896 ft | 496 kts | 45° |
| 2026-04-22 15:24 | 4.53662 | -157.75431 | 38895 ft | 497 kts | 45° |
| 2026-04-22 15:25 | 4.58356 | -157.70345 | 38895 ft | 497 kts | 45° |
| 2026-04-22 15:25 | 4.63053 | -157.65254 | 38897 ft | 497 kts | 45° |
| 2026-04-22 15:26 | 4.67748 | -157.60165 | 38888 ft | 497 kts | 45° |
| 2026-04-22 15:26 | 4.72457 | -157.55059 | 38892 ft | 497 kts | 45° |
| 2026-04-22 15:27 | 4.77132 | -157.49991 | 38896 ft | 498 kts | 45° |
| 2026-04-22 15:27 | 4.81840 | -157.44885 | 38897 ft | 498 kts | 45° |
| 2026-04-22 15:28 | 4.86542 | -157.39784 | 38899 ft | 498 kts | 44° |
| 2026-04-22 15:28 | 4.91253 | -157.34673 | 38897 ft | 498 kts | 44° |
| 2026-04-22 15:29 | 4.95931 | -157.29596 | 38899 ft | 499 kts | 44° |
| 2026-04-22 15:30 | 5.03006 | -157.21918 | 38897 ft | 499 kts | 44° |
| 2026-04-22 15:30 | 5.07722 | -157.16802 | 38902 ft | 499 kts | 44° |
| 2026-04-22 15:31 | 5.12443 | -157.11683 | 38903 ft | 499 kts | 44° |
| 2026-04-22 15:31 | 5.17132 | -157.06598 | 38902 ft | 500 kts | 44° |
| 2026-04-22 15:32 | 5.21860 | -157.01470 | 38907 ft | 500 kts | 44° |
| 2026-04-22 15:32 | 5.26587 | -156.96340 | 38903 ft | 500 kts | 44° |
| 2026-04-22 15:33 | 5.31315 | -156.91208 | 38900 ft | 501 kts | 44° |
| 2026-04-22 15:33 | 5.36052 | -156.86065 | 38898 ft | 502 kts | 44° |
| 2026-04-22 15:34 | 5.40804 | -156.80905 | 38899 ft | 502 kts | 44° |
| 2026-04-22 15:34 | 5.45552 | -156.75747 | 38901 ft | 503 kts | 44° |
| 2026-04-22 15:35 | 5.50277 | -156.70613 | 38900 ft | 504 kts | 44° |
| 2026-04-22 15:35 | 5.55042 | -156.65434 | 38903 ft | 505 kts | 44° |
| 2026-04-22 15:36 | 5.59820 | -156.60241 | 38905 ft | 506 kts | 44° |
| 2026-04-22 15:36 | 5.64600 | -156.55044 | 38905 ft | 506 kts | 44° |
| 2026-04-22 15:37 | 5.69384 | -156.49840 | 38902 ft | 507 kts | 44° |
| 2026-04-22 15:37 | 5.74173 | -156.44630 | 38903 ft | 508 kts | 44° |
| 2026-04-22 15:38 | 5.78937 | -156.39445 | 38905 ft | 508 kts | 44° |
| 2026-04-22 15:38 | 5.86135 | -156.31610 | 38908 ft | 509 kts | 44° |
| 2026-04-22 15:39 | 5.90940 | -156.26378 | 38906 ft | 509 kts | 44° |
| 2026-04-22 15:39 | 5.95749 | -156.21140 | 38908 ft | 510 kts | 44° |
| 2026-04-22 15:40 | 6.00557 | -156.15901 | 38910 ft | 510 kts | 44° |
| 2026-04-22 15:40 | 6.05368 | -156.10658 | 38909 ft | 510 kts | 44° |
| 2026-04-22 15:41 | 6.10154 | -156.05439 | 38911 ft | 510 kts | 44° |
| 2026-04-22 15:41 | 6.14995 | -156.00161 | 38912 ft | 510 kts | 44° |
| 2026-04-22 15:42 | 6.19779 | -155.94942 | 38911 ft | 511 kts | 44° |
| 2026-04-22 15:42 | 6.24591 | -155.89692 | 38912 ft | 511 kts | 43° |
| 2026-04-22 15:43 | 6.29411 | -155.84432 | 38916 ft | 511 kts | 43° |
| 2026-04-22 15:43 | 6.34234 | -155.79166 | 38915 ft | 511 kts | 43° |
| 2026-04-22 15:44 | 6.39024 | -155.73935 | 38914 ft | 511 kts | 43° |
| 2026-04-22 15:44 | 6.43867 | -155.68644 | 38915 ft | 511 kts | 43° |
| 2026-04-22 15:45 | 6.48683 | -155.63382 | 38916 ft | 511 kts | 43° |
| 2026-04-22 15:45 | 6.53464 | -155.58156 | 38917 ft | 511 kts | 43° |
| 2026-04-22 15:46 | 6.58270 | -155.52901 | 38916 ft | 511 kts | 43° |
| 2026-04-22 15:46 | 6.63077 | -155.47643 | 38920 ft | 511 kts | 43° |
| 2026-04-22 15:47 | 6.67891 | -155.42377 | 38918 ft | 511 kts | 43° |
| 2026-04-22 15:47 | 6.72695 | -155.37119 | 38922 ft | 511 kts | 43° |
| 2026-04-22 15:48 | 6.77511 | -155.31847 | 38922 ft | 511 kts | 43° |
| 2026-04-22 15:48 | 6.82319 | -155.26581 | 38920 ft | 511 kts | 43° |
| 2026-04-22 15:49 | 6.87131 | -155.21310 | 38920 ft | 511 kts | 43° |
| 2026-04-22 15:49 | 6.91942 | -155.16038 | 38923 ft | 511 kts | 43° |
| 2026-04-22 15:50 | 6.96745 | -155.10773 | 38924 ft | 511 kts | 43° |
| 2026-04-22 15:50 | 7.01527 | -155.05530 | 38926 ft | 511 kts | 43° |
| 2026-04-22 15:51 | 7.06328 | -155.00264 | 38925 ft | 511 kts | 43° |
| 2026-04-22 15:51 | 7.11133 | -154.94992 | 38930 ft | 510 kts | 43° |
| 2026-04-22 15:52 | 7.15933 | -154.89723 | 38928 ft | 510 kts | 43° |
| 2026-04-22 15:52 | 7.20732 | -154.84454 | 38930 ft | 510 kts | 43° |
| 2026-04-22 15:53 | 7.25531 | -154.79183 | 38925 ft | 510 kts | 43° |
| 2026-04-22 15:53 | 7.30325 | -154.73916 | 38928 ft | 509 kts | 43° |
| 2026-04-22 15:54 | 7.35089 | -154.68679 | 38924 ft | 509 kts | 43° |
| 2026-04-22 15:54 | 7.39875 | -154.63417 | 38928 ft | 509 kts | 43° |
| 2026-04-22 15:55 | 7.44660 | -154.58155 | 38932 ft | 509 kts | 43° |
| 2026-04-22 15:55 | 7.49450 | -154.52885 | 38928 ft | 509 kts | 43° |
| 2026-04-22 15:56 | 7.54236 | -154.47618 | 38929 ft | 510 kts | 43° |
| 2026-04-22 15:56 | 7.59003 | -154.42368 | 38933 ft | 510 kts | 43° |
| 2026-04-22 15:57 | 7.63800 | -154.37085 | 38935 ft | 511 kts | 43° |
| 2026-04-22 15:57 | 7.68596 | -154.31801 | 38933 ft | 511 kts | 43° |
| 2026-04-22 15:58 | 7.73407 | -154.26499 | 38931 ft | 512 kts | 43° |
| 2026-04-22 15:58 | 7.78215 | -154.21197 | 38930 ft | 513 kts | 43° |
| 2026-04-22 15:59 | 7.83035 | -154.15881 | 38934 ft | 514 kts | 43° |
| 2026-04-22 15:59 | 7.87865 | -154.10552 | 38936 ft | 515 kts | 43° |
| 2026-04-22 16:00 | 7.92700 | -154.05215 | 38941 ft | 516 kts | 43° |
| 2026-04-22 16:00 | 7.97545 | -153.99864 | 38938 ft | 517 kts | 43° |
| 2026-04-22 16:01 | 8.02367 | -153.94538 | 38940 ft | 517 kts | 43° |
| 2026-04-22 16:01 | 8.07230 | -153.89165 | 38943 ft | 518 kts | 43° |
| 2026-04-22 16:02 | 8.12089 | -153.83794 | 38946 ft | 518 kts | 43° |
| 2026-04-22 16:02 | 8.16952 | -153.78411 | 38942 ft | 518 kts | 43° |
| 2026-04-22 16:03 | 8.21804 | -153.73032 | 38942 ft | 518 kts | 43° |
| 2026-04-22 16:03 | 8.26664 | -153.67645 | 38949 ft | 518 kts | 43° |
| 2026-04-22 16:04 | 8.31520 | -153.62263 | 38944 ft | 518 kts | 43° |
| 2026-04-22 16:04 | 8.36377 | -153.56876 | 38931 ft | 519 kts | 43° |
| 2026-04-22 16:05 | 8.41235 | -153.51486 | 38930 ft | 519 kts | 43° |
| 2026-04-22 16:05 | 8.46066 | -153.46125 | 38937 ft | 519 kts | 43° |
| 2026-04-22 16:06 | 8.50933 | -153.40720 | 38933 ft | 520 kts | 43° |
| 2026-04-22 16:06 | 8.55797 | -153.35316 | 38931 ft | 520 kts | 43° |
| 2026-04-22 16:07 | 8.60667 | -153.29904 | 38931 ft | 521 kts | 43° |
| 2026-04-22 16:07 | 8.65543 | -153.24483 | 38939 ft | 522 kts | 43° |
| 2026-04-22 16:08 | 8.69608 | -153.19962 | 38939 ft | 522 kts | 43° |
| 2026-04-22 16:08 | 8.74500 | -153.14519 | 38950 ft | 523 kts | 43° |
| 2026-04-22 16:09 | 8.80193 | -153.08181 | 38942 ft | 524 kts | 43° |
| 2026-04-22 16:09 | 8.84302 | -153.03605 | 38945 ft | 524 kts | 43° |
| 2026-04-22 16:10 | 8.89176 | -152.98175 | 38940 ft | 525 kts | 43° |
| 2026-04-22 16:10 | 8.94089 | -152.92698 | 38947 ft | 525 kts | 42° |
| 2026-04-22 16:11 | 8.99003 | -152.87220 | 38946 ft | 526 kts | 43° |
| 2026-04-22 16:11 | 9.03903 | -152.81753 | 38955 ft | 526 kts | 42° |
| 2026-04-22 16:12 | 9.08822 | -152.76263 | 38956 ft | 526 kts | 43° |
| 2026-04-22 16:12 | 9.13748 | -152.70764 | 38952 ft | 526 kts | 42° |
| 2026-04-22 16:13 | 9.18630 | -152.65310 | 38955 ft | 526 kts | 42° |
| 2026-04-22 16:13 | 9.23543 | -152.59819 | 38952 ft | 525 kts | 42° |
| 2026-04-22 16:14 | 9.28445 | -152.54338 | 38955 ft | 525 kts | 42° |
| 2026-04-22 16:14 | 9.33355 | -152.48847 | 38954 ft | 524 kts | 42° |
| 2026-04-22 16:15 | 9.38225 | -152.43398 | 38956 ft | 524 kts | 42° |
| 2026-04-22 16:15 | 9.43118 | -152.37920 | 38951 ft | 524 kts | 43° |
| 2026-04-22 16:16 | 9.48005 | -152.32446 | 38946 ft | 524 kts | 43° |
| 2026-04-22 16:16 | 9.52892 | -152.26970 | 38948 ft | 524 kts | 43° |
| 2026-04-22 16:17 | 9.57794 | -152.21474 | 38948 ft | 524 kts | 43° |
| 2026-04-22 16:17 | 9.62666 | -152.16010 | 38954 ft | 525 kts | 43° |
| 2026-04-22 16:18 | 9.67565 | -152.10513 | 38957 ft | 525 kts | 43° |
| 2026-04-22 16:18 | 9.72466 | -152.05011 | 38960 ft | 525 kts | 43° |
| 2026-04-22 16:19 | 9.77365 | -151.99508 | 38966 ft | 525 kts | 43° |
| 2026-04-22 16:19 | 9.82238 | -151.94032 | 38966 ft | 525 kts | 43° |
| 2026-04-22 16:20 | 9.87135 | -151.88526 | 38967 ft | 525 kts | 43° |
| 2026-04-22 16:20 | 9.92036 | -151.83015 | 38964 ft | 525 kts | 43° |
| 2026-04-22 16:21 | 9.96925 | -151.77513 | 38966 ft | 525 kts | 43° |
| 2026-04-22 16:21 | 10.01823 | -151.71999 | 38962 ft | 525 kts | 43° |
| 2026-04-22 16:22 | 10.09139 | -151.63756 | 38959 ft | 525 kts | 43° |
| 2026-04-22 16:23 | 10.16491 | -151.55468 | 38960 ft | 526 kts | 43° |
| 2026-04-22 16:23 | 10.21364 | -151.49971 | 38963 ft | 526 kts | 43° |
| 2026-04-22 16:24 | 10.28716 | -151.41672 | 38971 ft | 527 kts | 43° |
| 2026-04-22 16:25 | 10.33618 | -151.36135 | 38975 ft | 527 kts | 43° |
| 2026-04-22 16:25 | 10.40959 | -151.27838 | 38972 ft | 528 kts | 43° |
| 2026-04-22 16:26 | 10.45874 | -151.22280 | 38972 ft | 528 kts | 43° |
| 2026-04-22 16:26 | 10.50790 | -151.16718 | 38977 ft | 528 kts | 43° |
| 2026-04-22 16:27 | 10.55700 | -151.11159 | 38964 ft | 529 kts | 44° |
| 2026-04-22 16:27 | 10.60621 | -151.05585 | 38972 ft | 529 kts | 44° |
| 2026-04-22 16:28 | 10.65513 | -151.00041 | 38967 ft | 530 kts | 44° |
| 2026-04-22 16:28 | 10.70444 | -150.94450 | 38973 ft | 530 kts | 44° |
| 2026-04-22 16:29 | 10.75383 | -150.88847 | 38971 ft | 531 kts | 44° |
| 2026-04-22 16:29 | 10.80288 | -150.83280 | 38981 ft | 531 kts | 44° |
| 2026-04-22 16:30 | 10.85230 | -150.77667 | 38977 ft | 532 kts | 44° |
| 2026-04-22 16:30 | 10.90178 | -150.72045 | 38976 ft | 532 kts | 44° |
| 2026-04-22 16:31 | 10.95122 | -150.66424 | 38982 ft | 533 kts | 44° |
| 2026-04-22 16:31 | 11.00042 | -150.60828 | 38984 ft | 533 kts | 44° |
| 2026-04-22 16:32 | 11.05001 | -150.55184 | 38978 ft | 534 kts | 44° |
| 2026-04-22 16:32 | 11.09953 | -150.49544 | 38977 ft | 534 kts | 44° |
| 2026-04-22 16:33 | 11.14884 | -150.43927 | 38982 ft | 534 kts | 44° |
| 2026-04-22 16:33 | 11.19847 | -150.38269 | 38986 ft | 535 kts | 44° |
| 2026-04-22 16:34 | 11.24815 | -150.32602 | 38987 ft | 535 kts | 44° |
| 2026-04-22 16:34 | 11.29773 | -150.26944 | 38973 ft | 536 kts | 44° |
| 2026-04-22 16:35 | 11.34710 | -150.21306 | 38973 ft | 536 kts | 44° |
| 2026-04-22 16:35 | 11.39683 | -150.15624 | 38980 ft | 537 kts | 44° |
| 2026-04-22 16:36 | 11.44666 | -150.09930 | 38992 ft | 537 kts | 44° |
| 2026-04-22 16:36 | 11.49618 | -150.04267 | 38996 ft | 538 kts | 44° |
| 2026-04-22 16:37 | 11.54611 | -149.98554 | 39003 ft | 539 kts | 44° |
| 2026-04-22 16:37 | 11.59600 | -149.92827 | 38998 ft | 539 kts | 44° |
| 2026-04-22 16:38 | 11.64559 | -149.87136 | 39002 ft | 540 kts | 44° |
| 2026-04-22 16:38 | 11.69554 | -149.81404 | 39004 ft | 540 kts | 44° |
| 2026-04-22 16:39 | 11.74541 | -149.75680 | 38996 ft | 541 kts | 44° |
| 2026-04-22 16:39 | 11.79536 | -149.69941 | 38994 ft | 541 kts | 44° |
| 2026-04-22 16:40 | 11.84542 | -149.64185 | 38995 ft | 542 kts | 44° |
| 2026-04-22 16:41 | 11.92052 | -149.55544 | 38999 ft | 542 kts | 44° |
| 2026-04-22 16:41 | 11.97064 | -149.49773 | 39005 ft | 543 kts | 44° |
| 2026-04-22 16:42 | 12.02049 | -149.44029 | 39003 ft | 543 kts | 44° |
| 2026-04-22 16:42 | 12.07061 | -149.38251 | 39004 ft | 543 kts | 44° |
| 2026-04-22 16:43 | 12.12077 | -149.32465 | 39006 ft | 544 kts | 44° |
| 2026-04-22 16:43 | 12.17094 | -149.26674 | 39006 ft | 544 kts | 44° |
| 2026-04-22 16:44 | 12.22109 | -149.20882 | 39004 ft | 544 kts | 44° |
| 2026-04-22 16:44 | 12.27120 | -149.15090 | 39011 ft | 544 kts | 44° |
| 2026-04-22 16:45 | 12.32129 | -149.09298 | 39008 ft | 544 kts | 44° |
| 2026-04-22 16:45 | 12.37114 | -149.03529 | 39012 ft | 544 kts | 44° |
| 2026-04-22 16:45 | 12.39590 | -149.00659 | 39005 ft | 530 kts | 45° |
| 2026-04-22 16:46 | 12.41995 | -148.97867 | 39005 ft | 514 kts | 44° |
| 2026-04-22 16:46 | 12.44324 | -148.95164 | 39008 ft | 502 kts | 44° |
| 2026-04-22 16:46 | 12.46643 | -148.92481 | 39012 ft | 503 kts | 44° |
| 2026-04-22 16:47 | 12.51312 | -148.87079 | 39010 ft | 507 kts | 44° |
| 2026-04-22 16:47 | 12.55195 | -148.82576 | 39010 ft | 507 kts | 45° |
| 2026-04-22 16:48 | 12.60615 | -148.76284 | 39014 ft | 506 kts | 45° |
| 2026-04-22 16:48 | 12.65303 | -148.70841 | 39013 ft | 506 kts | 45° |
| 2026-04-22 16:49 | 12.69956 | -148.65433 | 39019 ft | 506 kts | 45° |
| 2026-04-22 16:49 | 12.74578 | -148.60060 | 39022 ft | 505 kts | 45° |
| 2026-04-22 16:50 | 12.79219 | -148.54660 | 39021 ft | 505 kts | 45° |
| 2026-04-22 16:50 | 12.83866 | -148.49250 | 39016 ft | 504 kts | 45° |
| 2026-04-22 16:51 | 12.88504 | -148.43848 | 39022 ft | 504 kts | 45° |
| 2026-04-22 16:51 | 12.93133 | -148.38453 | 39018 ft | 503 kts | 45° |
| 2026-04-22 16:52 | 12.97763 | -148.33053 | 39021 ft | 503 kts | 45° |
| 2026-04-22 16:52 | 13.01603 | -148.28572 | 39015 ft | 503 kts | 45° |
| 2026-04-22 16:53 | 13.06966 | -148.22311 | 39029 ft | 502 kts | 45° |
| 2026-04-22 16:53 | 13.11575 | -148.16925 | 39023 ft | 502 kts | 45° |
| 2026-04-22 16:54 | 13.16177 | -148.11544 | 39022 ft | 501 kts | 45° |
| 2026-04-22 16:54 | 13.19998 | -148.07075 | 39025 ft | 501 kts | 45° |
| 2026-04-22 16:55 | 13.24590 | -148.01700 | 39028 ft | 500 kts | 45° |
| 2026-04-22 16:55 | 13.29173 | -147.96333 | 39028 ft | 500 kts | 45° |
| 2026-04-22 16:56 | 13.33763 | -147.90954 | 39032 ft | 500 kts | 45° |
| 2026-04-22 16:56 | 13.38315 | -147.85616 | 39034 ft | 499 kts | 45° |
| 2026-04-22 16:57 | 13.42888 | -147.80250 | 39035 ft | 499 kts | 45° |
| 2026-04-22 16:57 | 13.47456 | -147.74887 | 39036 ft | 498 kts | 45° |
| 2026-04-22 16:58 | 13.52018 | -147.69527 | 39032 ft | 498 kts | 45° |
| 2026-04-22 16:58 | 13.56577 | -147.64167 | 39033 ft | 498 kts | 45° |
| 2026-04-22 16:59 | 13.61132 | -147.58810 | 39035 ft | 497 kts | 45° |
| 2026-04-22 16:59 | 13.65688 | -147.53447 | 39038 ft | 497 kts | 45° |
| 2026-04-22 17:00 | 13.70219 | -147.48110 | 39040 ft | 497 kts | 45° |
| 2026-04-22 17:00 | 13.77023 | -147.40090 | 39042 ft | 497 kts | 46° |
| 2026-04-22 17:01 | 13.81572 | -147.34723 | 39047 ft | 497 kts | 46° |
| 2026-04-22 17:01 | 13.86123 | -147.29351 | 39052 ft | 497 kts | 46° |
| 2026-04-22 17:02 | 13.90677 | -147.23971 | 39053 ft | 497 kts | 46° |
| 2026-04-22 17:02 | 13.95188 | -147.18639 | 39047 ft | 496 kts | 46° |
| 2026-04-22 17:03 | 13.99729 | -147.13268 | 39053 ft | 496 kts | 46° |
| 2026-04-22 17:03 | 14.04260 | -147.07905 | 39056 ft | 496 kts | 46° |
| 2026-04-22 17:04 | 14.08762 | -147.02574 | 39050 ft | 495 kts | 46° |
| 2026-04-22 17:04 | 14.13284 | -146.97214 | 39051 ft | 495 kts | 46° |
| 2026-04-22 17:05 | 14.17808 | -146.91849 | 39050 ft | 495 kts | 46° |
| 2026-04-22 17:05 | 14.22327 | -146.86487 | 39049 ft | 495 kts | 46° |
| 2026-04-22 17:06 | 14.26841 | -146.81126 | 39047 ft | 495 kts | 46° |
| 2026-04-22 17:06 | 14.31331 | -146.75791 | 39048 ft | 495 kts | 46° |
| 2026-04-22 17:07 | 14.35847 | -146.70422 | 39048 ft | 495 kts | 46° |
| 2026-04-22 17:07 | 14.40365 | -146.65046 | 39049 ft | 496 kts | 46° |
| 2026-04-22 17:08 | 14.44885 | -146.59664 | 39049 ft | 496 kts | 46° |
| 2026-04-22 17:08 | 14.49407 | -146.54276 | 39057 ft | 497 kts | 46° |
| 2026-04-22 17:09 | 14.53904 | -146.48914 | 39061 ft | 497 kts | 46° |
| 2026-04-22 17:09 | 14.58438 | -146.43505 | 39060 ft | 497 kts | 46° |
| 2026-04-22 17:10 | 14.62972 | -146.38091 | 39064 ft | 497 kts | 46° |
| 2026-04-22 17:10 | 14.67472 | -146.32716 | 39060 ft | 497 kts | 46° |
| 2026-04-22 17:11 | 14.72000 | -146.27301 | 39064 ft | 497 kts | 45° |
| 2026-04-22 17:11 | 14.76527 | -146.21887 | 39061 ft | 497 kts | 45° |
| 2026-04-22 17:12 | 14.81052 | -146.16471 | 39060 ft | 497 kts | 45° |
| 2026-04-22 17:12 | 14.85538 | -146.11099 | 39056 ft | 497 kts | 45° |
| 2026-04-22 17:13 | 14.90054 | -146.05686 | 39056 ft | 497 kts | 45° |
| 2026-04-22 17:13 | 14.94564 | -146.00261 | 39054 ft | 497 kts | 45° |
| 2026-04-22 17:14 | 14.99073 | -145.94843 | 39058 ft | 497 kts | 45° |
| 2026-04-22 17:14 | 15.03558 | -145.89458 | 39057 ft | 497 kts | 45° |
| 2026-04-22 17:15 | 15.08071 | -145.84034 | 39060 ft | 497 kts | 45° |
| 2026-04-22 17:15 | 15.12598 | -145.78591 | 39064 ft | 497 kts | 45° |
| 2026-04-22 17:16 | 15.17077 | -145.73200 | 39063 ft | 497 kts | 45° |
| 2026-04-22 17:16 | 15.21587 | -145.67769 | 39061 ft | 496 kts | 45° |
| 2026-04-22 17:17 | 15.26088 | -145.62343 | 39063 ft | 496 kts | 45° |
| 2026-04-22 17:17 | 15.30590 | -145.56910 | 39067 ft | 496 kts | 45° |
| 2026-04-22 17:18 | 15.35060 | -145.51513 | 39068 ft | 496 kts | 45° |
| 2026-04-22 17:18 | 15.39558 | -145.46078 | 39063 ft | 496 kts | 45° |
| 2026-04-22 17:19 | 15.48538 | -145.35216 | 39063 ft | 496 kts | 45° |
| 2026-04-22 17:20 | 15.57504 | -145.24356 | 39066 ft | 497 kts | 45° |
| 2026-04-22 17:21 | 15.64242 | -145.16182 | 39071 ft | 497 kts | 45° |
| 2026-04-22 17:22 | 15.70990 | -145.07989 | 39073 ft | 497 kts | 45° |
| 2026-04-22 17:23 | 15.77707 | -144.99824 | 39078 ft | 497 kts | 45° |
| 2026-04-22 17:23 | 15.84452 | -144.91615 | 39062 ft | 497 kts | 45° |
| 2026-04-22 17:24 | 15.88945 | -144.86142 | 39065 ft | 497 kts | 45° |
| 2026-04-22 17:24 | 15.93415 | -144.80693 | 39076 ft | 497 kts | 45° |
| 2026-04-22 17:25 | 15.97911 | -144.75209 | 39077 ft | 497 kts | 45° |
| 2026-04-22 17:25 | 16.02401 | -144.69726 | 39081 ft | 497 kts | 45° |
| 2026-04-22 17:26 | 16.06855 | -144.64284 | 39076 ft | 497 kts | 45° |
| 2026-04-22 17:26 | 16.11344 | -144.58796 | 39082 ft | 497 kts | 45° |
| 2026-04-22 17:27 | 16.15825 | -144.53312 | 39082 ft | 497 kts | 45° |
| 2026-04-22 17:27 | 16.20313 | -144.47816 | 39081 ft | 497 kts | 45° |
| 2026-04-22 17:28 | 16.24780 | -144.42341 | 39076 ft | 497 kts | 45° |
| 2026-04-22 17:28 | 16.29225 | -144.36890 | 39090 ft | 496 kts | 45° |
| 2026-04-22 17:29 | 16.33691 | -144.31408 | 39079 ft | 496 kts | 45° |
| 2026-04-22 17:29 | 16.38170 | -144.25905 | 39081 ft | 496 kts | 45° |
| 2026-04-22 17:30 | 16.42612 | -144.20445 | 39087 ft | 496 kts | 45° |
| 2026-04-22 17:30 | 16.47084 | -144.14943 | 39083 ft | 496 kts | 45° |
| 2026-04-22 17:31 | 16.51541 | -144.09456 | 39086 ft | 495 kts | 45° |
| 2026-04-22 17:31 | 16.55994 | -144.03968 | 39089 ft | 495 kts | 45° |
| 2026-04-22 17:32 | 16.60415 | -143.98516 | 39089 ft | 495 kts | 45° |
| 2026-04-22 17:32 | 16.64858 | -143.93032 | 39088 ft | 494 kts | 45° |
| 2026-04-22 17:33 | 16.69293 | -143.87555 | 39089 ft | 494 kts | 45° |
| 2026-04-22 17:33 | 16.73730 | -143.82071 | 39089 ft | 494 kts | 46° |
| 2026-04-22 17:34 | 16.78160 | -143.76590 | 39087 ft | 493 kts | 45° |
| 2026-04-22 17:34 | 16.82555 | -143.71150 | 39089 ft | 493 kts | 46° |
| 2026-04-22 17:35 | 16.86984 | -143.65662 | 39089 ft | 493 kts | 45° |
| 2026-04-22 17:35 | 16.91404 | -143.60180 | 39088 ft | 493 kts | 45° |
| 2026-04-22 17:36 | 16.95826 | -143.54692 | 39088 ft | 493 kts | 45° |
| 2026-04-22 17:36 | 17.00254 | -143.49192 | 39094 ft | 493 kts | 45° |
| 2026-04-22 17:37 | 17.04677 | -143.43696 | 39091 ft | 493 kts | 45° |
| 2026-04-22 17:37 | 17.09069 | -143.38231 | 39093 ft | 494 kts | 45° |
| 2026-04-22 17:38 | 17.13482 | -143.32736 | 39096 ft | 494 kts | 45° |
| 2026-04-22 17:38 | 17.17905 | -143.27226 | 39097 ft | 494 kts | 45° |
| 2026-04-22 17:39 | 17.22304 | -143.21740 | 39101 ft | 494 kts | 45° |
| 2026-04-22 17:40 | 17.28940 | -143.13457 | 39097 ft | 494 kts | 46° |
| 2026-04-22 17:40 | 17.32614 | -143.08865 | 39098 ft | 494 kts | 46° |
| 2026-04-22 17:41 | 17.37029 | -143.03344 | 39108 ft | 495 kts | 46° |
| 2026-04-22 17:41 | 17.41453 | -142.97808 | 39109 ft | 495 kts | 46° |
| 2026-04-22 17:42 | 17.45847 | -142.92305 | 39115 ft | 495 kts | 46° |
| 2026-04-22 17:42 | 17.50265 | -142.86767 | 39101 ft | 495 kts | 46° |
| 2026-04-22 17:43 | 17.54679 | -142.81227 | 39101 ft | 495 kts | 46° |
| 2026-04-22 17:43 | 17.59095 | -142.75683 | 39107 ft | 495 kts | 46° |
| 2026-04-22 17:44 | 17.63516 | -142.70126 | 39107 ft | 495 kts | 46° |
| 2026-04-22 17:44 | 17.67900 | -142.64613 | 39107 ft | 495 kts | 46° |
| 2026-04-22 17:45 | 17.72311 | -142.59061 | 39110 ft | 495 kts | 46° |
| 2026-04-22 17:45 | 17.76732 | -142.53491 | 39108 ft | 495 kts | 46° |
| 2026-04-22 17:46 | 17.81118 | -142.47959 | 39105 ft | 495 kts | 46° |
| 2026-04-22 17:46 | 17.85527 | -142.42395 | 39106 ft | 495 kts | 46° |
| 2026-04-22 17:47 | 17.89939 | -142.36822 | 39107 ft | 495 kts | 46° |
| 2026-04-22 17:47 | 17.94322 | -142.31281 | 39108 ft | 495 kts | 46° |
| 2026-04-22 17:48 | 17.98725 | -142.25710 | 39114 ft | 495 kts | 46° |
| 2026-04-22 17:48 | 18.03132 | -142.20129 | 39114 ft | 495 kts | 46° |
| 2026-04-22 17:49 | 18.07536 | -142.14547 | 39111 ft | 496 kts | 46° |
| 2026-04-22 17:49 | 18.11912 | -142.08996 | 39120 ft | 496 kts | 46° |
| 2026-04-22 17:50 | 18.16313 | -142.03409 | 39118 ft | 496 kts | 46° |
| 2026-04-22 17:50 | 18.20715 | -141.97814 | 39120 ft | 496 kts | 46° |
| 2026-04-22 17:51 | 18.25110 | -141.92224 | 39117 ft | 496 kts | 46° |
| 2026-04-22 17:51 | 18.29512 | -141.86620 | 39119 ft | 496 kts | 46° |
| 2026-04-22 17:52 | 18.33909 | -141.81018 | 39123 ft | 496 kts | 46° |
| 2026-04-22 17:52 | 18.38275 | -141.75451 | 39120 ft | 496 kts | 46° |
| 2026-04-22 17:53 | 18.42667 | -141.69845 | 39118 ft | 496 kts | 46° |
| 2026-04-22 17:53 | 18.47072 | -141.64218 | 39117 ft | 496 kts | 46° |
| 2026-04-22 17:54 | 18.51460 | -141.58607 | 39118 ft | 496 kts | 46° |
| 2026-04-22 17:54 | 18.55827 | -141.53018 | 39118 ft | 496 kts | 46° |
| 2026-04-22 17:55 | 18.60213 | -141.47401 | 39120 ft | 496 kts | 46° |
| 2026-04-22 17:55 | 18.64606 | -141.41768 | 39122 ft | 497 kts | 46° |
| 2026-04-22 17:56 | 18.68995 | -141.36137 | 39124 ft | 497 kts | 46° |
| 2026-04-22 17:56 | 18.73361 | -141.30528 | 39122 ft | 497 kts | 46° |
| 2026-04-22 17:57 | 18.77765 | -141.24867 | 39125 ft | 498 kts | 46° |
| 2026-04-22 17:57 | 18.82159 | -141.19214 | 39120 ft | 498 kts | 46° |
| 2026-04-22 17:58 | 18.86554 | -141.13553 | 39119 ft | 499 kts | 47° |
| 2026-04-22 17:58 | 18.90929 | -141.07914 | 39125 ft | 499 kts | 47° |
| 2026-04-22 17:59 | 18.95339 | -141.02225 | 39123 ft | 500 kts | 47° |
| 2026-04-22 17:59 | 18.99750 | -140.96528 | 39123 ft | 501 kts | 47° |
| 2026-04-22 18:00 | 19.03415 | -140.91791 | 39123 ft | 501 kts | 47° |
| 2026-04-22 18:00 | 19.08584 | -140.85104 | 39124 ft | 502 kts | 47° |
| 2026-04-22 18:01 | 19.12975 | -140.79418 | 39119 ft | 502 kts | 47° |
| 2026-04-22 18:01 | 19.17399 | -140.73683 | 39120 ft | 503 kts | 47° |
| 2026-04-22 18:02 | 19.21832 | -140.67933 | 39116 ft | 505 kts | 47° |
| 2026-04-22 18:02 | 19.26276 | -140.62161 | 39129 ft | 506 kts | 47° |
| 2026-04-22 18:03 | 19.30704 | -140.56405 | 39130 ft | 507 kts | 48° |
| 2026-04-22 18:03 | 19.35170 | -140.50594 | 39129 ft | 509 kts | 48° |
| 2026-04-22 18:04 | 19.39643 | -140.44769 | 39134 ft | 510 kts | 48° |
| 2026-04-22 18:04 | 19.44128 | -140.38922 | 39127 ft | 512 kts | 48° |
| 2026-04-22 18:05 | 19.48624 | -140.33056 | 39125 ft | 514 kts | 48° |
| 2026-04-22 18:05 | 19.53138 | -140.27159 | 39132 ft | 515 kts | 49° |
| 2026-04-22 18:06 | 19.57633 | -140.21281 | 39134 ft | 517 kts | 49° |
| 2026-04-22 18:06 | 19.62169 | -140.15346 | 39136 ft | 518 kts | 49° |
| 2026-04-22 18:07 | 19.66717 | -140.09387 | 39139 ft | 520 kts | 49° |
| 2026-04-22 18:07 | 19.71272 | -140.03414 | 39140 ft | 521 kts | 49° |
| 2026-04-22 18:08 | 19.75840 | -139.97417 | 39136 ft | 522 kts | 49° |
| 2026-04-22 18:08 | 19.80413 | -139.91408 | 39132 ft | 524 kts | 49° |
| 2026-04-22 18:09 | 19.84975 | -139.85408 | 39131 ft | 526 kts | 50° |
| 2026-04-22 18:09 | 19.89580 | -139.79345 | 39135 ft | 528 kts | 50° |
| 2026-04-22 18:10 | 19.94208 | -139.73245 | 39137 ft | 530 kts | 50° |
| 2026-04-22 18:10 | 19.98848 | -139.67124 | 39141 ft | 533 kts | 50° |
| 2026-04-22 18:11 | 20.03511 | -139.60967 | 39145 ft | 535 kts | 50° |
| 2026-04-22 18:11 | 20.08189 | -139.54786 | 39145 ft | 537 kts | 50° |
| 2026-04-22 18:12 | 20.12880 | -139.48582 | 39151 ft | 539 kts | 51° |
| 2026-04-22 18:12 | 20.16794 | -139.43400 | 39150 ft | 540 kts | 51° |
| 2026-04-22 18:13 | 20.22272 | -139.36140 | 39152 ft | 542 kts | 51° |
| 2026-04-22 18:13 | 20.26998 | -139.29844 | 39156 ft | 543 kts | 51° |
| 2026-04-22 18:14 | 20.31724 | -139.23540 | 39155 ft | 545 kts | 51° |
| 2026-04-22 18:14 | 20.36473 | -139.17219 | 39155 ft | 546 kts | 51° |
| 2026-04-22 18:15 | 20.41208 | -139.10915 | 39158 ft | 548 kts | 51° |
| 2026-04-22 18:15 | 20.45978 | -139.04557 | 39163 ft | 549 kts | 51° |
| 2026-04-22 18:16 | 20.50747 | -138.98193 | 39158 ft | 549 kts | 52° |
| 2026-04-22 18:16 | 20.55522 | -138.91813 | 39157 ft | 550 kts | 52° |
| 2026-04-22 18:17 | 20.60307 | -138.85410 | 39153 ft | 551 kts | 52° |
| 2026-04-22 18:17 | 20.65066 | -138.79033 | 39149 ft | 552 kts | 52° |
| 2026-04-22 18:18 | 20.69860 | -138.72602 | 39155 ft | 553 kts | 52° |
| 2026-04-22 18:18 | 20.74637 | -138.66187 | 39151 ft | 555 kts | 52° |
| 2026-04-22 18:19 | 20.79441 | -138.59728 | 39152 ft | 556 kts | 53° |
| 2026-04-22 18:19 | 20.84265 | -138.53236 | 39157 ft | 558 kts | 53° |
| 2026-04-22 18:20 | 20.89105 | -138.46713 | 39159 ft | 559 kts | 53° |
| 2026-04-22 18:20 | 20.93924 | -138.40213 | 39164 ft | 560 kts | 53° |
| 2026-04-22 18:21 | 20.98775 | -138.33660 | 39169 ft | 562 kts | 53° |
| 2026-04-22 18:21 | 21.03643 | -138.27078 | 39173 ft | 563 kts | 53° |
| 2026-04-22 18:22 | 21.08473 | -138.20539 | 39174 ft | 564 kts | 53° |
| 2026-04-22 18:22 | 21.13348 | -138.13932 | 39174 ft | 564 kts | 53° |
| 2026-04-22 18:23 | 21.18225 | -138.07314 | 39172 ft | 565 kts | 53° |
| 2026-04-22 18:23 | 21.23072 | -138.00729 | 39172 ft | 566 kts | 54° |
| 2026-04-22 18:24 | 21.30393 | -137.90768 | 39170 ft | 567 kts | 54° |
| 2026-04-22 18:25 | 21.37698 | -137.80811 | 39175 ft | 568 kts | 54° |
| 2026-04-22 18:25 | 21.42582 | -137.74143 | 39175 ft | 568 kts | 54° |
| 2026-04-22 18:26 | 21.49927 | -137.64102 | 39178 ft | 569 kts | 54° |
| 2026-04-22 18:26 | 21.53992 | -137.58536 | 39179 ft | 570 kts | 54° |
| 2026-04-22 18:27 | 21.59680 | -137.50738 | 39177 ft | 570 kts | 54° |
| 2026-04-22 18:27 | 21.64577 | -137.44017 | 39178 ft | 570 kts | 54° |
| 2026-04-22 18:28 | 21.68641 | -137.38432 | 39177 ft | 570 kts | 55° |
| 2026-04-22 18:28 | 21.73533 | -137.31702 | 39180 ft | 570 kts | 55° |
| 2026-04-22 18:29 | 21.78418 | -137.24975 | 39179 ft | 571 kts | 55° |
| 2026-04-22 18:29 | 21.83311 | -137.18226 | 39184 ft | 571 kts | 55° |
| 2026-04-22 18:30 | 21.90614 | -137.08139 | 39191 ft | 571 kts | 55° |
| 2026-04-22 18:31 | 21.95501 | -137.01377 | 39190 ft | 571 kts | 55° |
| 2026-04-22 18:31 | 22.00388 | -136.94608 | 39187 ft | 571 kts | 55° |
| 2026-04-22 18:32 | 22.05264 | -136.87846 | 39188 ft | 571 kts | 55° |
| 2026-04-22 18:32 | 22.10145 | -136.81068 | 39191 ft | 571 kts | 55° |
| 2026-04-22 18:33 | 22.14993 | -136.74326 | 39193 ft | 571 kts | 56° |
| 2026-04-22 18:33 | 22.19864 | -136.67546 | 39193 ft | 571 kts | 56° |
| 2026-04-22 18:34 | 22.24727 | -136.60767 | 39197 ft | 571 kts | 56° |
| 2026-04-22 18:34 | 22.29561 | -136.54020 | 39198 ft | 570 kts | 56° |
| 2026-04-22 18:35 | 22.34420 | -136.47230 | 39195 ft | 570 kts | 56° |
| 2026-04-22 18:35 | 22.39268 | -136.40446 | 39201 ft | 569 kts | 56° |
| 2026-04-22 18:36 | 22.44079 | -136.33706 | 39200 ft | 569 kts | 56° |
| 2026-04-22 18:36 | 22.48926 | -136.26906 | 39203 ft | 569 kts | 56° |
| 2026-04-22 18:37 | 22.53728 | -136.20160 | 39197 ft | 569 kts | 56° |
| 2026-04-22 18:37 | 22.58569 | -136.13352 | 39199 ft | 569 kts | 56° |
| 2026-04-22 18:38 | 22.63370 | -136.06590 | 39200 ft | 569 kts | 56° |
| 2026-04-22 18:38 | 22.68192 | -135.99791 | 39200 ft | 569 kts | 56° |
| 2026-04-22 18:39 | 22.75420 | -135.89582 | 39204 ft | 569 kts | 56° |
| 2026-04-22 18:39 | 22.80214 | -135.82799 | 39206 ft | 569 kts | 56° |
| 2026-04-22 18:40 | 22.85027 | -135.75982 | 39202 ft | 569 kts | 56° |
| 2026-04-22 18:40 | 22.89818 | -135.69186 | 39206 ft | 569 kts | 56° |
| 2026-04-22 18:41 | 22.94639 | -135.62339 | 39207 ft | 570 kts | 56° |
| 2026-04-22 18:41 | 22.99458 | -135.55486 | 39204 ft | 570 kts | 56° |
| 2026-04-22 18:42 | 23.04273 | -135.48629 | 39207 ft | 571 kts | 56° |
| 2026-04-22 18:42 | 23.09066 | -135.41795 | 39211 ft | 571 kts | 56° |
| 2026-04-22 18:43 | 23.13863 | -135.34945 | 39210 ft | 571 kts | 56° |
| 2026-04-22 18:43 | 23.18682 | -135.28056 | 39214 ft | 572 kts | 56° |
| 2026-04-22 18:44 | 23.23501 | -135.21156 | 39213 ft | 572 kts | 56° |
| 2026-04-22 18:44 | 23.28316 | -135.14254 | 39219 ft | 572 kts | 56° |
| 2026-04-22 18:45 | 23.33100 | -135.07386 | 39222 ft | 572 kts | 56° |
| 2026-04-22 18:45 | 23.37906 | -135.00477 | 39219 ft | 572 kts | 56° |
| 2026-04-22 18:46 | 23.42713 | -134.93559 | 39225 ft | 572 kts | 56° |
| 2026-04-22 18:46 | 23.47490 | -134.86673 | 39223 ft | 572 kts | 56° |
| 2026-04-22 18:47 | 23.52289 | -134.79746 | 39222 ft | 572 kts | 56° |
| 2026-04-22 18:47 | 23.57087 | -134.72812 | 39218 ft | 572 kts | 56° |
| 2026-04-22 18:48 | 23.61877 | -134.65880 | 39223 ft | 572 kts | 56° |
| 2026-04-22 18:48 | 23.66662 | -134.58945 | 39217 ft | 572 kts | 56° |
| 2026-04-22 18:49 | 23.71415 | -134.52047 | 39216 ft | 572 kts | 56° |
| 2026-04-22 18:49 | 23.76206 | -134.45084 | 39218 ft | 572 kts | 56° |
| 2026-04-22 18:50 | 23.80993 | -134.38118 | 39220 ft | 573 kts | 56° |
| 2026-04-22 18:50 | 23.85746 | -134.31191 | 39223 ft | 573 kts | 56° |
| 2026-04-22 18:51 | 23.90528 | -134.24212 | 39228 ft | 574 kts | 56° |
| 2026-04-22 18:51 | 23.95318 | -134.17212 | 39234 ft | 575 kts | 56° |
| 2026-04-22 18:52 | 24.00107 | -134.10205 | 39234 ft | 575 kts | 56° |
| 2026-04-22 18:52 | 24.05157 | -134.02804 | 39237 ft | 575 kts | 56° |
| 2026-04-22 18:53 | 24.09938 | -133.95786 | 39245 ft | 575 kts | 56° |
| 2026-04-22 18:53 | 24.14723 | -133.88753 | 39243 ft | 575 kts | 56° |
| 2026-04-22 18:54 | 24.19501 | -133.81720 | 39243 ft | 575 kts | 56° |
| 2026-04-22 18:54 | 24.24245 | -133.74728 | 39238 ft | 575 kts | 56° |
| 2026-04-22 18:55 | 24.29017 | -133.67685 | 39236 ft | 575 kts | 56° |
| 2026-04-22 18:55 | 24.33789 | -133.60632 | 39239 ft | 575 kts | 56° |
| 2026-04-22 18:56 | 24.38560 | -133.53568 | 39242 ft | 575 kts | 56° |
| 2026-04-22 18:56 | 24.43303 | -133.46537 | 39243 ft | 575 kts | 55° |
| 2026-04-22 18:57 | 24.48075 | -133.39454 | 39249 ft | 575 kts | 55° |
| 2026-04-22 18:57 | 24.52057 | -133.33533 | 39248 ft | 575 kts | 55° |
| 2026-04-22 18:58 | 24.56780 | -133.26503 | 39246 ft | 575 kts | 55° |
| 2026-04-22 18:58 | 24.61526 | -133.19429 | 39248 ft | 575 kts | 55° |
| 2026-04-22 18:59 | 24.66275 | -133.12339 | 39248 ft | 575 kts | 55° |
| 2026-04-22 18:59 | 24.71026 | -133.05236 | 39248 ft | 575 kts | 55° |
| 2026-04-22 19:00 | 24.75732 | -132.98190 | 39249 ft | 575 kts | 55° |
| 2026-04-22 19:00 | 24.80471 | -132.91084 | 39248 ft | 576 kts | 55° |
| 2026-04-22 19:01 | 24.85209 | -132.83970 | 39252 ft | 576 kts | 55° |
| 2026-04-22 19:01 | 24.89946 | -132.76846 | 39250 ft | 576 kts | 55° |
| 2026-04-22 19:02 | 24.94673 | -132.69727 | 39247 ft | 576 kts | 55° |
| 2026-04-22 19:02 | 24.99401 | -132.62594 | 39246 ft | 576 kts | 55° |
| 2026-04-22 19:03 | 25.04101 | -132.55495 | 39248 ft | 576 kts | 55° |
| 2026-04-22 19:03 | 25.08828 | -132.48344 | 39254 ft | 577 kts | 55° |
| 2026-04-22 19:04 | 25.13555 | -132.41188 | 39255 ft | 577 kts | 55° |
| 2026-04-22 19:04 | 25.18279 | -132.34027 | 39254 ft | 577 kts | 55° |
| 2026-04-22 19:05 | 25.23004 | -132.26856 | 39252 ft | 577 kts | 55° |
| 2026-04-22 19:05 | 25.27703 | -132.19712 | 39254 ft | 577 kts | 55° |
| 2026-04-22 19:06 | 25.32417 | -132.12519 | 39251 ft | 577 kts | 55° |
| 2026-04-22 19:07 | 25.39469 | -132.01702 | 39250 ft | 577 kts | 55° |
| 2026-04-22 19:07 | 25.44182 | -131.94498 | 39245 ft | 577 kts | 55° |
| 2026-04-22 19:08 | 25.48861 | -131.87343 | 39247 ft | 577 kts | 55° |
| 2026-04-22 19:08 | 25.53578 | -131.80117 | 39249 ft | 577 kts | 55° |
| 2026-04-22 19:09 | 25.58251 | -131.72948 | 39252 ft | 577 kts | 55° |
| 2026-04-22 19:09 | 25.62959 | -131.65712 | 39257 ft | 578 kts | 55° |
| 2026-04-22 19:10 | 25.67661 | -131.58469 | 39257 ft | 578 kts | 55° |
| 2026-04-22 19:10 | 25.72333 | -131.51261 | 39258 ft | 578 kts | 55° |
| 2026-04-22 19:11 | 25.77033 | -131.43997 | 39258 ft | 578 kts | 55° |
| 2026-04-22 19:11 | 25.81698 | -131.36776 | 39256 ft | 578 kts | 55° |
| 2026-04-22 19:12 | 25.86386 | -131.29507 | 39264 ft | 579 kts | 55° |
| 2026-04-22 19:12 | 25.91080 | -131.22220 | 39265 ft | 579 kts | 55° |
| 2026-04-22 19:13 | 25.95743 | -131.14967 | 39262 ft | 579 kts | 55° |
| 2026-04-22 19:13 | 26.00428 | -131.07670 | 39267 ft | 579 kts | 55° |
| 2026-04-22 19:14 | 26.05114 | -131.00360 | 39265 ft | 579 kts | 55° |
| 2026-04-22 19:14 | 26.09762 | -130.93097 | 39266 ft | 579 kts | 55° |
| 2026-04-22 19:15 | 26.13647 | -130.87018 | 39269 ft | 579 kts | 55° |
| 2026-04-22 19:15 | 26.19098 | -130.78474 | 39271 ft | 578 kts | 55° |
| 2026-04-22 19:16 | 26.23756 | -130.71162 | 39268 ft | 578 kts | 55° |
| 2026-04-22 19:16 | 26.28370 | -130.63907 | 39262 ft | 577 kts | 55° |
| 2026-04-22 19:17 | 26.33009 | -130.56599 | 39271 ft | 577 kts | 55° |
| 2026-04-22 19:17 | 26.37644 | -130.49287 | 39270 ft | 577 kts | 54° |
| 2026-04-22 19:18 | 26.42275 | -130.41970 | 39267 ft | 577 kts | 54° |
| 2026-04-22 19:18 | 26.46902 | -130.34647 | 39269 ft | 577 kts | 54° |
| 2026-04-22 19:19 | 26.51519 | -130.27328 | 39272 ft | 576 kts | 54° |
| 2026-04-22 19:19 | 26.56103 | -130.20051 | 39276 ft | 576 kts | 54° |
| 2026-04-22 19:20 | 26.60711 | -130.12723 | 39277 ft | 576 kts | 54° |
| 2026-04-22 19:20 | 26.65323 | -130.05376 | 39280 ft | 576 kts | 54° |
| 2026-04-22 19:21 | 26.69928 | -129.98029 | 39279 ft | 576 kts | 54° |
| 2026-04-22 19:21 | 26.74527 | -129.90680 | 39283 ft | 575 kts | 54° |
| 2026-04-22 19:22 | 26.79085 | -129.83383 | 39277 ft | 575 kts | 54° |
| 2026-04-22 19:22 | 26.83659 | -129.76050 | 39276 ft | 574 kts | 54° |
| 2026-04-22 19:23 | 26.88225 | -129.68718 | 39280 ft | 573 kts | 54° |
| 2026-04-22 19:23 | 26.92784 | -129.61386 | 39277 ft | 573 kts | 54° |
| 2026-04-22 19:24 | 26.97343 | -129.54039 | 39281 ft | 572 kts | 54° |
| 2026-04-22 19:24 | 27.01859 | -129.46751 | 39277 ft | 572 kts | 54° |
| 2026-04-22 19:25 | 27.06391 | -129.39426 | 39279 ft | 572 kts | 54° |
| 2026-04-22 19:25 | 27.10931 | -129.32076 | 39281 ft | 572 kts | 54° |
| 2026-04-22 19:26 | 27.15463 | -129.24725 | 39284 ft | 571 kts | 54° |
| 2026-04-22 19:26 | 27.19985 | -129.17380 | 39287 ft | 571 kts | 54° |
| 2026-04-22 19:27 | 27.24480 | -129.10065 | 39288 ft | 571 kts | 54° |
| 2026-04-22 19:27 | 27.28992 | -129.02711 | 39290 ft | 571 kts | 54° |
| 2026-04-22 19:28 | 27.33502 | -128.95348 | 39294 ft | 570 kts | 54° |
| 2026-04-22 19:28 | 27.37974 | -128.88035 | 39293 ft | 570 kts | 54° |
| 2026-04-22 19:29 | 27.42467 | -128.80675 | 39293 ft | 570 kts | 54° |
| 2026-04-22 19:29 | 27.46960 | -128.73304 | 39294 ft | 569 kts | 54° |
| 2026-04-22 19:30 | 27.50686 | -128.67181 | 39294 ft | 569 kts | 54° |
| 2026-04-22 19:30 | 27.55886 | -128.58621 | 39292 ft | 568 kts | 54° |
| 2026-04-22 19:31 | 27.60351 | -128.51259 | 39291 ft | 568 kts | 54° |
| 2026-04-22 19:31 | 27.64805 | -128.43901 | 39287 ft | 567 kts | 54° |
| 2026-04-22 19:32 | 27.69260 | -128.36529 | 39286 ft | 567 kts | 54° |
| 2026-04-22 19:32 | 27.73668 | -128.29223 | 39287 ft | 566 kts | 54° |
| 2026-04-22 19:33 | 27.78103 | -128.21860 | 39288 ft | 566 kts | 54° |
| 2026-04-22 19:33 | 27.82514 | -128.14525 | 39288 ft | 566 kts | 54° |
| 2026-04-22 19:34 | 27.86933 | -128.07164 | 39288 ft | 566 kts | 54° |
| 2026-04-22 19:34 | 27.91352 | -127.99789 | 39290 ft | 566 kts | 54° |
| 2026-04-22 19:35 | 27.95768 | -127.92409 | 39292 ft | 566 kts | 54° |
| 2026-04-22 19:35 | 27.99436 | -127.86267 | 39292 ft | 566 kts | 54° |
| 2026-04-22 19:36 | 28.04566 | -127.77665 | 39296 ft | 566 kts | 54° |
| 2026-04-22 19:36 | 28.08963 | -127.70276 | 39296 ft | 566 kts | 54° |
| 2026-04-22 19:37 | 28.13372 | -127.62856 | 39296 ft | 566 kts | 54° |
| 2026-04-22 19:37 | 28.17735 | -127.55501 | 39298 ft | 565 kts | 54° |
| 2026-04-22 19:38 | 28.22125 | -127.48087 | 39291 ft | 565 kts | 54° |
| 2026-04-22 19:38 | 28.26515 | -127.40660 | 39292 ft | 565 kts | 54° |
| 2026-04-22 19:39 | 28.30889 | -127.33247 | 39292 ft | 565 kts | 54° |
| 2026-04-22 19:39 | 28.35262 | -127.25823 | 39296 ft | 565 kts | 54° |
| 2026-04-22 19:40 | 28.39602 | -127.18442 | 39294 ft | 565 kts | 54° |
| 2026-04-22 19:40 | 28.43966 | -127.11007 | 39297 ft | 565 kts | 54° |
| 2026-04-22 19:41 | 28.48328 | -127.03563 | 39299 ft | 565 kts | 54° |
| 2026-04-22 19:41 | 28.52682 | -126.96120 | 39298 ft | 565 kts | 54° |
| 2026-04-22 19:42 | 28.57035 | -126.88665 | 39288 ft | 565 kts | 54° |
| 2026-04-22 19:42 | 28.61378 | -126.81215 | 39292 ft | 565 kts | 54° |
| 2026-04-22 19:43 | 28.67864 | -126.70063 | 39290 ft | 565 kts | 54° |
| 2026-04-22 19:43 | 28.72199 | -126.62593 | 39293 ft | 565 kts | 54° |
| 2026-04-22 19:44 | 28.76528 | -126.55120 | 39298 ft | 564 kts | 54° |
| 2026-04-22 19:44 | 28.80823 | -126.47693 | 39292 ft | 564 kts | 54° |
| 2026-04-22 19:45 | 28.85142 | -126.40210 | 39289 ft | 564 kts | 54° |
| 2026-04-22 19:45 | 28.89449 | -126.32736 | 39284 ft | 564 kts | 54° |
| 2026-04-22 19:46 | 28.93029 | -126.26512 | 39287 ft | 563 kts | 54° |
| 2026-04-22 19:46 | 28.97336 | -126.19013 | 39288 ft | 563 kts | 54° |
| 2026-04-22 19:47 | 29.01634 | -126.11517 | 39288 ft | 563 kts | 54° |
| 2026-04-22 19:47 | 29.05899 | -126.04064 | 39288 ft | 563 kts | 54° |
| 2026-04-22 19:48 | 29.10181 | -125.96566 | 39290 ft | 563 kts | 54° |
| 2026-04-22 19:48 | 29.14457 | -125.89068 | 39289 ft | 563 kts | 54° |
| 2026-04-22 19:49 | 29.18732 | -125.81557 | 39293 ft | 562 kts | 54° |
| 2026-04-22 19:49 | 29.22998 | -125.74049 | 39291 ft | 562 kts | 54° |
| 2026-04-22 19:50 | 29.27262 | -125.66529 | 39289 ft | 562 kts | 54° |
| 2026-04-22 19:50 | 29.31519 | -125.59009 | 39288 ft | 561 kts | 54° |
| 2026-04-22 19:51 | 29.35743 | -125.51534 | 39289 ft | 561 kts | 54° |
| 2026-04-22 19:51 | 29.39990 | -125.44003 | 39288 ft | 561 kts | 54° |
| 2026-04-22 19:52 | 29.44203 | -125.36521 | 39286 ft | 561 kts | 54° |
| 2026-04-22 19:52 | 29.48428 | -125.29002 | 39287 ft | 561 kts | 54° |
| 2026-04-22 19:53 | 29.52651 | -125.21474 | 39288 ft | 560 kts | 54° |
| 2026-04-22 19:53 | 29.56868 | -125.13942 | 39289 ft | 560 kts | 55° |
| 2026-04-22 19:54 | 29.61086 | -125.06395 | 39292 ft | 560 kts | 55° |
| 2026-04-22 19:54 | 29.65298 | -124.98845 | 39290 ft | 560 kts | 55° |
| 2026-04-22 19:55 | 29.69486 | -124.91323 | 39288 ft | 560 kts | 55° |
| 2026-04-22 19:55 | 29.73686 | -124.83764 | 39289 ft | 560 kts | 55° |
| 2026-04-22 19:56 | 29.77878 | -124.76208 | 39289 ft | 560 kts | 55° |
| 2026-04-22 19:56 | 29.82066 | -124.68646 | 39292 ft | 560 kts | 55° |
| 2026-04-22 19:57 | 29.86236 | -124.61101 | 39291 ft | 560 kts | 55° |
| 2026-04-22 19:57 | 29.90392 | -124.53567 | 39290 ft | 560 kts | 55° |
| 2026-04-22 19:58 | 29.94574 | -124.45972 | 39291 ft | 559 kts | 55° |
| 2026-04-22 19:58 | 29.98743 | -124.38385 | 39289 ft | 559 kts | 55° |
| 2026-04-22 20:00 | 30.13275 | -124.11831 | 39293 ft | 559 kts | 55° |
| 2026-04-22 20:01 | 30.17423 | -124.04219 | 39292 ft | 559 kts | 55° |
| 2026-04-22 20:01 | 30.21568 | -123.96598 | 39290 ft | 559 kts | 55° |
| 2026-04-22 20:02 | 30.25681 | -123.89022 | 39290 ft | 559 kts | 55° |
| 2026-04-22 20:02 | 30.29820 | -123.81382 | 39292 ft | 559 kts | 55° |
| 2026-04-22 20:03 | 30.33954 | -123.73739 | 39287 ft | 559 kts | 55° |
| 2026-04-22 20:03 | 30.38060 | -123.66132 | 39290 ft | 560 kts | 55° |
| 2026-04-22 20:04 | 30.42180 | -123.58484 | 39292 ft | 560 kts | 55° |
| 2026-04-22 20:04 | 30.46310 | -123.50805 | 39293 ft | 560 kts | 55° |
| 2026-04-22 20:05 | 30.50442 | -123.43117 | 39292 ft | 561 kts | 55° |
| 2026-04-22 20:05 | 30.54542 | -123.35472 | 39290 ft | 561 kts | 55° |
| 2026-04-22 20:06 | 30.58656 | -123.27788 | 39290 ft | 561 kts | 55° |
| 2026-04-22 20:06 | 30.62773 | -123.20083 | 39288 ft | 561 kts | 55° |
| 2026-04-22 20:07 | 30.66878 | -123.12356 | 39283 ft | 561 kts | 57° |
| 2026-04-22 20:07 | 30.70830 | -123.04610 | 39281 ft | 561 kts | 56° |
| 2026-04-22 20:08 | 30.74936 | -122.96889 | 39274 ft | 561 kts | 56° |
| 2026-04-22 20:08 | 30.79013 | -122.89135 | 39277 ft | 561 kts | 56° |
| 2026-04-22 20:09 | 30.83050 | -122.81395 | 39282 ft | 562 kts | 56° |
| 2026-04-22 20:09 | 30.87103 | -122.73604 | 39279 ft | 562 kts | 56° |
| 2026-04-22 20:10 | 30.91156 | -122.65797 | 39271 ft | 563 kts | 56° |
| 2026-04-22 20:10 | 30.95210 | -122.57975 | 39272 ft | 563 kts | 56° |
| 2026-04-22 20:11 | 30.99229 | -122.50203 | 39275 ft | 564 kts | 56° |
| 2026-04-22 20:11 | 31.03277 | -122.42359 | 39280 ft | 564 kts | 56° |
| 2026-04-22 20:12 | 31.07329 | -122.34493 | 39280 ft | 564 kts | 56° |
| 2026-04-22 20:12 | 31.10689 | -122.27957 | 39279 ft | 565 kts | 56° |
| 2026-04-22 20:13 | 31.15384 | -122.18807 | 39275 ft | 565 kts | 56° |
| 2026-04-22 20:13 | 31.19426 | -122.10911 | 39278 ft | 565 kts | 56° |
| 2026-04-22 20:14 | 31.23433 | -122.03068 | 39276 ft | 565 kts | 56° |
| 2026-04-22 20:14 | 31.27467 | -121.95156 | 39276 ft | 565 kts | 56° |
| 2026-04-22 20:15 | 31.31504 | -121.87223 | 39268 ft | 565 kts | 56° |
| 2026-04-22 20:15 | 31.35496 | -121.79359 | 39271 ft | 566 kts | 56° |
| 2026-04-22 20:16 | 31.39513 | -121.71432 | 39270 ft | 566 kts | 56° |
| 2026-04-22 20:16 | 31.43528 | -121.63492 | 39267 ft | 566 kts | 56° |
| 2026-04-22 20:17 | 31.47539 | -121.55544 | 39261 ft | 566 kts | 56° |
| 2026-04-22 20:17 | 31.51547 | -121.47584 | 39264 ft | 566 kts | 56° |
| 2026-04-22 20:18 | 31.55459 | -121.39625 | 39257 ft | 568 kts | 61° |
| 2026-04-22 20:18 | 31.58554 | -121.31089 | 39262 ft | 570 kts | 66° |
| 2026-04-22 20:19 | 31.61556 | -121.22464 | 39256 ft | 570 kts | 66° |
| 2026-04-22 20:19 | 31.64554 | -121.13836 | 39257 ft | 571 kts | 66° |
| 2026-04-22 20:20 | 31.67520 | -121.05247 | 39255 ft | 571 kts | 66° |
| 2026-04-22 20:20 | 31.70501 | -120.96585 | 39257 ft | 571 kts | 66° |
| 2026-04-22 20:21 | 31.73475 | -120.87919 | 39252 ft | 572 kts | 66° |
| 2026-04-22 20:21 | 31.76446 | -120.79240 | 39248 ft | 572 kts | 66° |
| 2026-04-22 20:22 | 31.79409 | -120.70560 | 39246 ft | 572 kts | 66° |
| 2026-04-22 20:22 | 31.82352 | -120.61917 | 39245 ft | 572 kts | 66° |
| 2026-04-22 20:23 | 31.85311 | -120.53204 | 39252 ft | 573 kts | 66° |
| 2026-04-22 20:23 | 31.88260 | -120.44501 | 39251 ft | 573 kts | 67° |
| 2026-04-22 20:24 | 31.91212 | -120.35762 | 39255 ft | 573 kts | 67° |
| 2026-04-22 20:24 | 31.94701 | -120.27445 | 39243 ft | 568 kts | 54° |
| 2026-04-22 20:25 | 31.99529 | -120.20151 | 39241 ft | 560 kts | 41° |
| 2026-04-22 20:25 | 32.04882 | -120.13443 | 39240 ft | 561 kts | 42° |
| 2026-04-22 20:26 | 32.10182 | -120.06721 | 39242 ft | 561 kts | 42° |
| 2026-04-22 20:26 | 32.15525 | -119.99949 | 39239 ft | 562 kts | 42° |
| 2026-04-22 20:27 | 32.20848 | -119.93197 | 39240 ft | 562 kts | 42° |
| 2026-04-22 20:27 | 32.26161 | -119.86447 | 39240 ft | 563 kts | 42° |
| 2026-04-22 20:28 | 32.31464 | -119.79698 | 39240 ft | 563 kts | 42° |
| 2026-04-22 20:28 | 32.36806 | -119.72885 | 39238 ft | 563 kts | 42° |
| 2026-04-22 20:29 | 32.42131 | -119.66081 | 39232 ft | 563 kts | 42° |
| 2026-04-22 20:29 | 32.47422 | -119.59309 | 39231 ft | 563 kts | 42° |
| 2026-04-22 20:30 | 32.52749 | -119.52476 | 39232 ft | 563 kts | 42° |
| 2026-04-22 20:30 | 32.58068 | -119.45642 | 39225 ft | 563 kts | 42° |
| 2026-04-22 20:31 | 32.62490 | -119.39951 | 39227 ft | 563 kts | 42° |
| 2026-04-22 20:31 | 32.68676 | -119.31974 | 39225 ft | 564 kts | 42° |
| 2026-04-22 20:32 | 32.73086 | -119.26277 | 39223 ft | 564 kts | 42° |
| 2026-04-22 20:32 | 32.78391 | -119.19412 | 39219 ft | 564 kts | 42° |
| 2026-04-22 20:33 | 32.83704 | -119.12523 | 39214 ft | 564 kts | 42° |
| 2026-04-22 20:33 | 32.89010 | -119.05630 | 39214 ft | 564 kts | 42° |
| 2026-04-22 20:34 | 32.94312 | -118.98729 | 39213 ft | 565 kts | 42° |
| 2026-04-22 20:34 | 32.99609 | -118.91820 | 39215 ft | 565 kts | 42° |
| 2026-04-22 20:35 | 33.04898 | -118.84907 | 39075 ft | 559 kts | 42° |
| 2026-04-22 20:35 | 33.07500 | -118.81498 | 38432 ft | 555 kts | 41° |
| 2026-04-22 20:35 | 33.10066 | -118.78136 | 37446 ft | 553 kts | 41° |
| 2026-04-22 20:35 | 33.12657 | -118.74742 | 36362 ft | 554 kts | 41° |
| 2026-04-22 20:36 | 33.15257 | -118.71333 | 35250 ft | 555 kts | 40° |
| 2026-04-22 20:36 | 33.17854 | -118.67924 | 34175 ft | 556 kts | 40° |
| 2026-04-22 20:36 | 33.20414 | -118.64510 | 33569 ft | 545 kts | 42° |
| 2026-04-22 20:36 | 33.22837 | -118.61099 | 33075 ft | 532 kts | 43° |
| 2026-04-22 20:37 | 33.25202 | -118.57727 | 32339 ft | 524 kts | 43° |
| 2026-04-22 20:37 | 33.27539 | -118.54404 | 31550 ft | 518 kts | 44° |
| 2026-04-22 20:37 | 33.29835 | -118.51157 | 30797 ft | 516 kts | 44° |
| 2026-04-22 20:37 | 33.32082 | -118.47784 | 29992 ft | 522 kts | 53° |
| 2026-04-22 20:38 | 33.33849 | -118.43966 | 29091 ft | 525 kts | 65° |
| 2026-04-22 20:38 | 33.34996 | -118.39834 | 28215 ft | 521 kts | 77° |
| 2026-04-22 20:38 | 33.35479 | -118.35576 | 27377 ft | 513 kts | 89° |
| 2026-04-22 20:38 | 33.35296 | -118.31410 | 26566 ft | 503 kts | 101° |
| 2026-04-22 20:39 | 33.34467 | -118.27398 | 25686 ft | 492 kts | 114° |
| 2026-04-22 20:39 | 33.33045 | -118.23698 | 24421 ft | 488 kts | 126° |
| 2026-04-22 20:39 | 33.31065 | -118.20419 | 22922 ft | 485 kts | 138° |
| 2026-04-22 20:39 | 33.28603 | -118.17724 | 21563 ft | 475 kts | 150° |
| 2026-04-22 20:40 | 33.25806 | -118.15736 | 20414 ft | 459 kts | 162° |
| 2026-04-22 20:40 | 33.22898 | -118.14274 | 19205 ft | 455 kts | 158° |
| 2026-04-22 20:40 | 33.20230 | -118.12236 | 18090 ft | 460 kts | 144° |
| 2026-04-22 20:40 | 33.17994 | -118.09506 | 17020 ft | 459 kts | 130° |
| 2026-04-22 20:41 | 33.16351 | -118.06265 | 16010 ft | 456 kts | 115° |
| 2026-04-22 20:41 | 33.15398 | -118.02677 | 15015 ft | 450 kts | 100° |
| 2026-04-22 20:41 | 33.15207 | -117.98992 | 14061 ft | 442 kts | 84° |
| 2026-04-22 20:41 | 33.15825 | -117.95540 | 13571 ft | 419 kts | 66° |
| 2026-04-22 20:42 | 33.17167 | -117.92611 | 13272 ft | 389 kts | 47° |
| 2026-04-22 20:42 | 33.19069 | -117.90515 | 12984 ft | 359 kts | 26° |
| 2026-04-22 20:42 | 33.21298 | -117.89398 | 12525 ft | 339 kts | 6° |
| 2026-04-22 20:42 | 33.23602 | -117.89289 | 11975 ft | 328 kts | 351° |
| 2026-04-22 20:43 | 33.25878 | -117.89479 | 11435 ft | 327 kts | 351° |
| 2026-04-22 20:43 | 33.28138 | -117.89683 | 10936 ft | 324 kts | 351° |
| 2026-04-22 20:43 | 33.30371 | -117.89899 | 10444 ft | 321 kts | 351° |
| 2026-04-22 20:43 | 33.32578 | -117.90126 | 10143 ft | 313 kts | 351° |
| 2026-04-22 20:44 | 33.34703 | -117.90345 | 10004 ft | 299 kts | 351° |
| 2026-04-22 20:44 | 33.36732 | -117.90548 | 9856 ft | 286 kts | 351° |
| 2026-04-22 20:44 | 33.38699 | -117.90745 | 9485 ft | 282 kts | 351° |
| 2026-04-22 20:44 | 33.40648 | -117.90950 | 9097 ft | 280 kts | 351° |
| 2026-04-22 20:45 | 33.42581 | -117.91165 | 8702 ft | 278 kts | 351° |
| 2026-04-22 20:45 | 33.44507 | -117.91387 | 8303 ft | 276 kts | 351° |
| 2026-04-22 20:45 | 33.46388 | -117.91611 | 7926 ft | 274 kts | 351° |
| 2026-04-22 20:45 | 33.48275 | -117.91844 | 7567 ft | 271 kts | 351° |
| 2026-04-22 20:46 | 33.51917 | -117.92306 | 7290 ft | 251 kts | 351° |
| 2026-04-22 20:46 | 33.53595 | -117.92516 | 7197 ft | 240 kts | 351° |
| 2026-04-22 20:46 | 33.55247 | -117.92718 | 7117 ft | 230 kts | 351° |
| 2026-04-22 20:47 | 33.56795 | -117.92910 | 7014 ft | 224 kts | 351° |
| 2026-04-22 20:47 | 33.58347 | -117.93103 | 6984 ft | 222 kts | 351° |
| 2026-04-22 20:47 | 33.59893 | -117.93295 | 6983 ft | 224 kts | 351° |
| 2026-04-22 20:47 | 33.61446 | -117.93491 | 6986 ft | 225 kts | 351° |
| 2026-04-22 20:48 | 33.63017 | -117.93689 | 6981 ft | 226 kts | 351° |
| 2026-04-22 20:48 | 33.64573 | -117.93882 | 6987 ft | 224 kts | 351° |
| 2026-04-22 20:48 | 33.66124 | -117.94074 | 6986 ft | 224 kts | 351° |
| 2026-04-22 20:48 | 33.67674 | -117.94264 | 6988 ft | 224 kts | 351° |
| 2026-04-22 20:49 | 33.69230 | -117.94453 | 6991 ft | 224 kts | 351° |
| 2026-04-22 20:49 | 33.70761 | -117.94636 | 7000 ft | 224 kts | 352° |
| 2026-04-22 20:49 | 33.72309 | -117.94850 | 6998 ft | 223 kts | 347° |
| 2026-04-22 20:49 | 33.73805 | -117.95303 | 6951 ft | 221 kts | 341° |
| 2026-04-22 20:50 | 33.75288 | -117.95823 | 6814 ft | 221 kts | 341° |
| 2026-04-22 20:50 | 33.76767 | -117.96344 | 6580 ft | 220 kts | 341° |
| 2026-04-22 20:50 | 33.78234 | -117.96867 | 6359 ft | 218 kts | 341° |
| 2026-04-22 20:50 | 33.79664 | -117.97378 | 6273 ft | 210 kts | 341° |
| 2026-04-22 20:51 | 33.81021 | -117.97864 | 6229 ft | 201 kts | 341° |
| 2026-04-22 20:51 | 33.82349 | -117.98337 | 6093 ft | 197 kts | 341° |
| 2026-04-22 20:51 | 33.83672 | -117.98748 | 5849 ft | 199 kts | 354° |
| 2026-04-22 20:51 | 33.85066 | -117.98695 | 5629 ft | 200 kts | 1° |
| 2026-04-22 20:52 | 33.86441 | -117.98575 | 5447 ft | 197 kts | 1° |
| 2026-04-22 20:52 | 33.87813 | -117.98460 | 5157 ft | 196 kts | 1° |
| 2026-04-22 20:52 | 33.89137 | -117.98360 | 4591 ft | 194 kts | 1° |
| 2026-04-22 20:52 | 33.90495 | -117.98257 | 4110 ft | 195 kts | 1° |
| 2026-04-22 20:53 | 33.91860 | -117.98151 | 3983 ft | 200 kts | 1° |
| 2026-04-22 20:53 | 33.93267 | -117.98047 | 3975 ft | 204 kts | 1° |
| 2026-04-22 20:53 | 33.94678 | -117.97936 | 3973 ft | 201 kts | 1° |
| 2026-04-22 20:53 | 33.96071 | -117.97859 | 3966 ft | 200 kts | 352° |
| 2026-04-22 20:54 | 33.97326 | -117.98496 | 3972 ft | 197 kts | 315° |
| 2026-04-22 20:54 | 33.98036 | -117.99868 | 3981 ft | 195 kts | 291° |
| 2026-04-22 20:54 | 33.98519 | -118.01385 | 3953 ft | 196 kts | 285° |
| 2026-04-22 20:54 | 33.98820 | -118.02979 | 3968 ft | 193 kts | 281° |
| 2026-04-22 20:55 | 33.98786 | -118.04559 | 3964 ft | 193 kts | 250° |
| 2026-04-22 20:55 | 33.98021 | -118.05883 | 3971 ft | 195 kts | 229° |
| 2026-04-22 20:55 | 33.97182 | -118.07167 | 3955 ft | 195 kts | 246° |
| 2026-04-22 20:55 | 33.96801 | -118.08728 | 3967 ft | 195 kts | 258° |
| 2026-04-22 20:56 | 33.96581 | -118.10339 | 3962 ft | 194 kts | 262° |
| 2026-04-22 20:56 | 33.96416 | -118.11959 | 3962 ft | 194 kts | 263° |
| 2026-04-22 20:56 | 33.96255 | -118.13537 | 3977 ft | 191 kts | 263° |
| 2026-04-22 20:56 | 33.96092 | -118.15124 | 3930 ft | 190 kts | 263° |
| 2026-04-22 20:57 | 33.95928 | -118.16749 | 3721 ft | 204 kts | 263° |
| 2026-04-22 20:57 | 33.95754 | -118.18467 | 3444 ft | 198 kts | 262° |
| 2026-04-22 20:57 | 33.95596 | -118.20004 | 3161 ft | 174 kts | 263° |
| 2026-04-22 20:57 | 33.95457 | -118.21387 | 2917 ft | 159 kts | 262° |
| 2026-04-22 20:58 | 33.95327 | -118.22637 | 2722 ft | 148 kts | 263° |
| 2026-04-22 20:58 | 33.95206 | -118.23830 | 2544 ft | 137 kts | 262° |
| 2026-04-22 20:58 | 33.95094 | -118.24945 | 2353 ft | 131 kts | 263° |
| 2026-04-22 20:58 | 33.94986 | -118.26006 | 2182 ft | 124 kts | 263° |
| 2026-04-22 20:59 | 33.94879 | -118.27040 | 2019 ft | 126 kts | 261° |
| 2026-04-22 20:59 | 33.94771 | -118.28113 | 1852 ft | 130 kts | 263° |
| 2026-04-22 20:59 | 33.94664 | -118.29188 | 1672 ft | 128 kts | 262° |
| 2026-04-22 20:59 | 33.94555 | -118.30224 | 1496 ft | 125 kts | 262° |
| 2026-04-22 21:00 | 33.94452 | -118.31257 | 1329 ft | 124 kts | 262° |
| 2026-04-22 21:00 | 33.94347 | -118.32290 | 1150 ft | 126 kts | 260° |
| 2026-04-22 21:00 | 33.94235 | -118.33355 | 991 ft | 127 kts | 262° |
| 2026-04-22 21:00 | 33.94123 | -118.34390 | 831 ft | 124 kts | 262° |
| 2026-04-22 21:01 | 33.94020 | -118.35391 | 641 ft | 117 kts | 263° |
| 2026-04-22 21:01 | 33.93920 | -118.36346 | 486 ft | 117 kts | 265° |
| 2026-04-22 21:01 | 33.93840 | -118.37246 | 314 ft | 122 kts | 263° |
| 2026-04-22 21:01 | 33.93736 | -118.38272 | 178 ft | 122 kts | 263° |
| 2026-04-22 21:02 | 33.93641 | -118.39187 | 128 ft | 92 kts | 263° |
| 2026-04-22 21:02 | 33.93585 | -118.39763 | 129 ft | 53 kts | 263° |
| 2026-04-22 21:02 | 33.93566 | -118.40117 | 127 ft | 29 kts | 275° |
| 2026-04-22 21:02 | 33.93605 | -118.40307 | 131 ft | 21 kts | 287° |
| 2026-04-22 21:03 | 33.93623 | -118.40484 | 128 ft | 21 kts | 264° |
| 2026-04-22 21:03 | 33.93610 | -118.40623 | 127 ft | 15 kts | 262° |
| 2026-04-22 21:03 | 33.93597 | -118.40744 | 127 ft | 15 kts | 262° |
| 2026-04-22 21:03 | 33.93614 | -118.40857 | 126 ft | 13 kts | 307° |
| 2026-04-22 21:04 | 33.93688 | -118.40898 | 128 ft | 13 kts | 352° |
| 2026-04-22 21:04 | 33.93772 | -118.40911 | 128 ft | 8 kts | 354° |
| 2026-04-22 21:04 | 33.93780 | -118.40912 | 129 ft | 0 kts | 354° |
| 2026-04-22 21:05 | 33.93781 | -118.40912 | 126 ft | 0 kts | 354° |
| 2026-04-22 21:05 | 33.93795 | -118.40914 | 125 ft | 6 kts | 354° |
| 2026-04-22 21:05 | 33.93835 | -118.40923 | 128 ft | 6 kts | 327° |
| 2026-04-22 21:05 | 33.93857 | -118.40967 | 126 ft | 6 kts | 276° |
| 2026-04-22 21:06 | 33.93857 | -118.41032 | 131 ft | 9 kts | 264° |
| 2026-04-22 21:06 | 33.93848 | -118.41111 | 128 ft | 9 kts | 267° |
| 2026-04-22 21:06 | 33.93870 | -118.41157 | 128 ft | 6 kts | 329° |
| 2026-04-22 21:06 | 33.93900 | -118.41168 | 128 ft | 0 kts | 353° |
| 2026-04-22 21:07 | 33.93912 | -118.41170 | 126 ft | 5 kts | 353° |
| 2026-04-22 21:07 | 33.93964 | -118.41177 | 126 ft | 9 kts | 353° |
| 2026-04-22 21:07 | 33.94040 | -118.41189 | 128 ft | 10 kts | 353° |
| 2026-04-22 21:08 | 33.94078 | -118.41190 | 128 ft | 3 kts | 30° |
| 2026-04-22 21:08 | 33.94090 | -118.41172 | 127 ft | 2 kts | 74° |
| 2026-04-22 21:08 | 33.94093 | -118.41139 | 131 ft | 6 kts | 83° |
| 2026-04-22 21:08 | 33.94096 | -118.41114 | 130 ft | 3 kts | 82° |
| 2026-04-22 21:09 | 33.94096 | -118.41108 | 130 ft | 0 kts | 81° |